<?xml version="1.0" encoding="UTF-8" standalone="no" ?>
<gpx xmlns="http://www.topografix.com/GPX/1/1" xmlns:xsi="http://www.w3.org/2001/XMLSchema-instance" xsi:schemaLocation="http://www.topografix.com/GPX/1/1 http://www.topografix.com/GPX/1/1/gpx.xsd" version="1.1" creator="VisuGPX - https://www.visugpx.com">
  <metadata>
    <name>Sources Ponts-de-Martel</name>
  </metadata>
  <trk>
    <name><![CDATA[Sources Ponts-de-Martel]]></name>
    <extensions>
      <line xmlns="http://www.topografix.com/GPX/gpx_style/0/2">
        <color>0000FF</color>
        <width>4</width>
      </line>
    </extensions>
    <trkseg>
      <trkpt lat="47.00028" lon="6.71602">
        <ele>1165.3</ele>
        <time>2021-09-11T08:00:00.000Z</time>
      </trkpt>
      <trkpt lat="47.00027" lon="6.71602">
        <ele>1165.3</ele>
        <time>2021-09-11T08:00:00.448Z</time>
      </trkpt>
      <trkpt lat="47.00025" lon="6.71595">
        <ele>1165.1</ele>
        <time>2021-09-11T08:00:01.719Z</time>
      </trkpt>
      <trkpt lat="47.00035" lon="6.71631">
        <ele>1165.6</ele>
        <time>2021-09-11T08:00:31.285Z</time>
      </trkpt>
      <trkpt lat="47.00044" lon="6.71664">
        <ele>1166.9</ele>
        <time>2021-09-11T08:01:11.340Z</time>
      </trkpt>
      <trkpt lat="47.0005" lon="6.71689">
        <ele>1168.3</ele>
        <time>2021-09-11T08:01:46.895Z</time>
      </trkpt>
      <trkpt lat="47.00055" lon="6.71706">
        <ele>1169.4</ele>
        <time>2021-09-11T08:02:13.809Z</time>
      </trkpt>
      <trkpt lat="47.00074" lon="6.71762">
        <ele>1172.4004725912</ele>
        <time>2021-09-11T08:03:33.204Z</time>
      </trkpt>
      <trkpt lat="47.00084" lon="6.7179">
        <ele>1173.2007278708</ele>
        <time>2021-09-11T08:04:03.338Z</time>
      </trkpt>
      <trkpt lat="47.00091" lon="6.71811">
        <ele>1173.8</ele>
        <time>2021-09-11T08:04:25.769Z</time>
      </trkpt>
      <trkpt lat="47.00094" lon="6.7182">
        <ele>1173.9</ele>
        <time>2021-09-11T08:04:33.048Z</time>
      </trkpt>
      <trkpt lat="47.00097" lon="6.71829">
        <ele>1174.4</ele>
        <time>2021-09-11T08:04:46.044Z</time>
      </trkpt>
      <trkpt lat="47.001" lon="6.71845">
        <ele>1175.2</ele>
        <time>2021-09-11T08:05:07.163Z</time>
      </trkpt>
      <trkpt lat="47.00107" lon="6.71879">
        <ele>1175.7991661643</ele>
        <time>2021-09-11T08:05:36.056Z</time>
      </trkpt>
      <trkpt lat="47.0012" lon="6.71945">
        <ele>1177.4995251342</ele>
        <time>2021-09-11T08:06:40.805Z</time>
      </trkpt>
      <trkpt lat="47.00139" lon="6.72043">
        <ele>1180.3</ele>
        <time>2021-09-11T08:08:22.425Z</time>
      </trkpt>
      <trkpt lat="47.00142" lon="6.72053">
        <ele>1180.7</ele>
        <time>2021-09-11T08:08:34.742Z</time>
      </trkpt>
      <trkpt lat="47.00152" lon="6.72092">
        <ele>1181.6</ele>
        <time>2021-09-11T08:09:11.671Z</time>
      </trkpt>
      <trkpt lat="47.0016" lon="6.72113">
        <ele>1181.7</ele>
        <time>2021-09-11T08:09:27.701Z</time>
      </trkpt>
      <trkpt lat="47.00164" lon="6.72123">
        <ele>1181.8999194046</ele>
        <time>2021-09-11T08:09:37.194Z</time>
      </trkpt>
      <trkpt lat="47.00172" lon="6.72142">
        <ele>1181.9</ele>
        <time>2021-09-11T08:09:51.244Z</time>
      </trkpt>
      <trkpt lat="47.00186" lon="6.72172">
        <ele>1182.1</ele>
        <time>2021-09-11T08:10:15.940Z</time>
      </trkpt>
      <trkpt lat="47.00193" lon="6.72182">
        <ele>1182.6</ele>
        <time>2021-09-11T08:10:31.827Z</time>
      </trkpt>
      <trkpt lat="47.00199" lon="6.72193">
        <ele>1182.7</ele>
        <time>2021-09-11T08:10:41.623Z</time>
      </trkpt>
      <trkpt lat="47.00205" lon="6.72207">
        <ele>1182.7999446363</ele>
        <time>2021-09-11T08:10:52.946Z</time>
      </trkpt>
      <trkpt lat="47.00213" lon="6.7223">
        <ele>1181.4</ele>
        <time>2021-09-11T08:10:56.664Z</time>
      </trkpt>
      <trkpt lat="47.00214" lon="6.72235">
        <ele>1181.1011669827</ele>
        <time>2021-09-11T08:10:57.414Z</time>
      </trkpt>
      <trkpt lat="47.00214" lon="6.72245">
        <ele>1180.8004423424</ele>
        <time>2021-09-11T08:10:59.005Z</time>
      </trkpt>
      <trkpt lat="47.00217" lon="6.72279">
        <ele>1178.8</ele>
        <time>2021-09-11T08:11:03.941Z</time>
      </trkpt>
      <trkpt lat="47.00218" lon="6.72295">
        <ele>1178</ele>
        <time>2021-09-11T08:11:06.255Z</time>
      </trkpt>
      <trkpt lat="47.0022" lon="6.72308">
        <ele>1177.7</ele>
        <time>2021-09-11T08:11:08.614Z</time>
      </trkpt>
      <trkpt lat="47.0022" lon="6.72308">
        <ele>1177.7</ele>
        <time>2021-09-11T08:11:08.614Z</time>
      </trkpt>
      <trkpt lat="47.00221" lon="6.72309">
        <ele>1177.2</ele>
        <time>2021-09-11T08:11:08.807Z</time>
      </trkpt>
      <trkpt lat="47.0022" lon="6.72308">
        <ele>1177.7</ele>
        <time>2021-09-11T08:11:12.050Z</time>
      </trkpt>
      <trkpt lat="47.0022" lon="6.72308">
        <ele>1177.7</ele>
        <time>2021-09-11T08:11:12.050Z</time>
      </trkpt>
      <trkpt lat="47.00226" lon="6.72334">
        <ele>1176.7</ele>
        <time>2021-09-11T08:11:16.074Z</time>
      </trkpt>
      <trkpt lat="47.00233" lon="6.72358">
        <ele>1175.2999446788</ele>
        <time>2021-09-11T08:11:19.833Z</time>
      </trkpt>
      <trkpt lat="47.00236" lon="6.72368">
        <ele>1175.2003575682</ele>
        <time>2021-09-11T08:11:22.250Z</time>
      </trkpt>
      <trkpt lat="47.00237" lon="6.72379">
        <ele>1174.9</ele>
        <time>2021-09-11T08:11:24.090Z</time>
      </trkpt>
      <trkpt lat="47.00239" lon="6.72394">
        <ele>1174.2</ele>
        <time>2021-09-11T08:11:26.291Z</time>
      </trkpt>
      <trkpt lat="47.0024" lon="6.72408">
        <ele>1173.4</ele>
        <time>2021-09-11T08:11:28.318Z</time>
      </trkpt>
      <trkpt lat="47.0024" lon="6.72422">
        <ele>1172.8021241813</ele>
        <time>2021-09-11T08:11:30.223Z</time>
      </trkpt>
      <trkpt lat="47.0024" lon="6.72438">
        <ele>1172.4</ele>
        <time>2021-09-11T08:11:32.949Z</time>
      </trkpt>
      <trkpt lat="47.00239" lon="6.72445">
        <ele>1172.4</ele>
        <time>2021-09-11T08:11:37.449Z</time>
      </trkpt>
      <trkpt lat="47.00238" lon="6.72456">
        <ele>1172.3000868933</ele>
        <time>2021-09-11T08:11:39.910Z</time>
      </trkpt>
      <trkpt lat="47.00238" lon="6.72476">
        <ele>1172.4</ele>
        <time>2021-09-11T08:11:53.399Z</time>
      </trkpt>
      <trkpt lat="47.0024" lon="6.72497">
        <ele>1172.1</ele>
        <time>2021-09-11T08:11:57.689Z</time>
      </trkpt>
      <trkpt lat="47.00243" lon="6.72516">
        <ele>1172.199846596</ele>
        <time>2021-09-11T08:12:10.865Z</time>
      </trkpt>
      <trkpt lat="47.00246" lon="6.72535">
        <ele>1172.5</ele>
        <time>2021-09-11T08:12:26.333Z</time>
      </trkpt>
      <trkpt lat="47.00249" lon="6.72551">
        <ele>1173</ele>
        <time>2021-09-11T08:12:43.872Z</time>
      </trkpt>
      <trkpt lat="47.00253" lon="6.72565">
        <ele>1173.4003365277</ele>
        <time>2021-09-11T08:12:58.661Z</time>
      </trkpt>
      <trkpt lat="47.00256" lon="6.72575">
        <ele>1173.4999232944</ele>
        <time>2021-09-11T08:13:06.494Z</time>
      </trkpt>
      <trkpt lat="47.00263" lon="6.72592">
        <ele>1173.7</ele>
        <time>2021-09-11T08:13:20.944Z</time>
      </trkpt>
      <trkpt lat="47.0027" lon="6.72606">
        <ele>1173.7</ele>
        <time>2021-09-11T08:13:31.866Z</time>
      </trkpt>
      <trkpt lat="47.00277" lon="6.7262">
        <ele>1173.7999336055</ele>
        <time>2021-09-11T08:13:43.703Z</time>
      </trkpt>
      <trkpt lat="47.00285" lon="6.72633">
        <ele>1173.9</ele>
        <time>2021-09-11T08:13:55.636Z</time>
      </trkpt>
      <trkpt lat="47.00293" lon="6.72643">
        <ele>1174</ele>
        <time>2021-09-11T08:14:06.260Z</time>
      </trkpt>
      <trkpt lat="47.00302" lon="6.72651">
        <ele>1174.1010769491</ele>
        <time>2021-09-11T08:14:16.907Z</time>
      </trkpt>
      <trkpt lat="47.0031" lon="6.72659">
        <ele>1174.3</ele>
        <time>2021-09-11T08:14:27.911Z</time>
      </trkpt>
      <trkpt lat="47.00319" lon="6.72663">
        <ele>1174</ele>
        <time>2021-09-11T08:14:30.381Z</time>
      </trkpt>
      <trkpt lat="47.00328" lon="6.72667">
        <ele>1174.4</ele>
        <time>2021-09-11T08:14:44.595Z</time>
      </trkpt>
      <trkpt lat="47.00339" lon="6.72671">
        <ele>1174.9006270455</ele>
        <time>2021-09-11T08:15:02.157Z</time>
      </trkpt>
      <trkpt lat="47.0035" lon="6.72674">
        <ele>1175.1</ele>
        <time>2021-09-11T08:15:14.493Z</time>
      </trkpt>
      <trkpt lat="47.0037" lon="6.72677">
        <ele>1176</ele>
        <time>2021-09-11T08:15:45.850Z</time>
      </trkpt>
      <trkpt lat="47.0039" lon="6.72679">
        <ele>1176</ele>
        <time>2021-09-11T08:16:04.344Z</time>
      </trkpt>
      <trkpt lat="47.00399" lon="6.7268">
        <ele>1176.1</ele>
        <time>2021-09-11T08:16:13.612Z</time>
      </trkpt>
      <trkpt lat="47.00406" lon="6.72682">
        <ele>1176.2</ele>
        <time>2021-09-11T08:16:21.161Z</time>
      </trkpt>
      <trkpt lat="47.0042" lon="6.72688">
        <ele>1176.3994654333</ele>
        <time>2021-09-11T08:16:36.545Z</time>
      </trkpt>
      <trkpt lat="47.00436" lon="6.72696">
        <ele>1176.6999904203</ele>
        <time>2021-09-11T08:16:55.174Z</time>
      </trkpt>
      <trkpt lat="47.00447" lon="6.72702">
        <ele>1176.6</ele>
        <time>2021-09-11T08:16:59.233Z</time>
      </trkpt>
      <trkpt lat="47.00455" lon="6.72707">
        <ele>1176.4</ele>
        <time>2021-09-11T08:17:01.747Z</time>
      </trkpt>
      <trkpt lat="47.00467" lon="6.72718">
        <ele>1176.9</ele>
        <time>2021-09-11T08:17:21.050Z</time>
      </trkpt>
      <trkpt lat="47.00473" lon="6.72722">
        <ele>1176.8</ele>
        <time>2021-09-11T08:17:23.141Z</time>
      </trkpt>
      <trkpt lat="47.00472" lon="6.72722">
        <ele>1176.8</ele>
        <time>2021-09-11T08:17:24.064Z</time>
      </trkpt>
      <trkpt lat="47.00473" lon="6.72722">
        <ele>1176.8</ele>
        <time>2021-09-11T08:17:24.767Z</time>
      </trkpt>
      <trkpt lat="47.00472" lon="6.72722">
        <ele>1176.8</ele>
        <time>2021-09-11T08:17:25.469Z</time>
      </trkpt>
      <trkpt lat="47.00473" lon="6.72722">
        <ele>1176.8</ele>
        <time>2021-09-11T08:17:26.392Z</time>
      </trkpt>
      <trkpt lat="47.00479" lon="6.72724">
        <ele>1176.5997458151</ele>
        <time>2021-09-11T08:17:27.997Z</time>
      </trkpt>
      <trkpt lat="47.00485" lon="6.72724">
        <ele>1176.0024811176</ele>
        <time>2021-09-11T08:17:29.264Z</time>
      </trkpt>
      <trkpt lat="47.00492" lon="6.72722">
        <ele>1175.9</ele>
        <time>2021-09-11T08:17:31.549Z</time>
      </trkpt>
      <trkpt lat="47.00498" lon="6.72719">
        <ele>1175.6</ele>
        <time>2021-09-11T08:17:32.986Z</time>
      </trkpt>
      <trkpt lat="47.00503" lon="6.72717">
        <ele>1175.3993876088</ele>
        <time>2021-09-11T08:17:34.258Z</time>
      </trkpt>
      <trkpt lat="47.00508" lon="6.72716">
        <ele>1175.3</ele>
        <time>2021-09-11T08:17:35.773Z</time>
      </trkpt>
      <trkpt lat="47.00514" lon="6.72718">
        <ele>1175.1</ele>
        <time>2021-09-11T08:17:37.379Z</time>
      </trkpt>
      <trkpt lat="47.00519" lon="6.72721">
        <ele>1174.9007122444</ele>
        <time>2021-09-11T08:17:38.729Z</time>
      </trkpt>
      <trkpt lat="47.00529" lon="6.72727">
        <ele>1174.3</ele>
        <time>2021-09-11T08:17:41.010Z</time>
      </trkpt>
      <trkpt lat="47.00533" lon="6.72729">
        <ele>1174.0002328887</ele>
        <time>2021-09-11T08:17:41.902Z</time>
      </trkpt>
      <trkpt lat="47.00538" lon="6.72729">
        <ele>1173.7023420893</ele>
        <time>2021-09-11T08:17:42.924Z</time>
      </trkpt>
      <trkpt lat="47.0055" lon="6.72727">
        <ele>1172.5</ele>
        <time>2021-09-11T08:17:45.474Z</time>
      </trkpt>
      <trkpt lat="47.00579" lon="6.7272">
        <ele>1172.1</ele>
        <time>2021-09-11T08:17:54.982Z</time>
      </trkpt>
      <trkpt lat="47.00585" lon="6.72719">
        <ele>1172.1</ele>
        <time>2021-09-11T08:18:00.553Z</time>
      </trkpt>
      <trkpt lat="47.00606" lon="6.72718">
        <ele>1172.6</ele>
        <time>2021-09-11T08:18:25.341Z</time>
      </trkpt>
      <trkpt lat="47.00601" lon="6.72725">
        <ele>1171.8</ele>
        <time>2021-09-11T08:18:26.800Z</time>
      </trkpt>
      <trkpt lat="47.00562" lon="6.72768">
        <ele>1167.2962137725</ele>
        <time>2021-09-11T08:18:37.102Z</time>
      </trkpt>
      <trkpt lat="47.0055" lon="6.72782">
        <ele>1166.1</ele>
        <time>2021-09-11T08:18:40.339Z</time>
      </trkpt>
      <trkpt lat="47.00541" lon="6.72787">
        <ele>1165</ele>
        <time>2021-09-11T08:18:42.371Z</time>
      </trkpt>
      <trkpt lat="47.0053" lon="6.72796">
        <ele>1163.4</ele>
        <time>2021-09-11T08:18:45.030Z</time>
      </trkpt>
      <trkpt lat="47.00511" lon="6.72812">
        <ele>1161.6983925564</ele>
        <time>2021-09-11T08:18:49.656Z</time>
      </trkpt>
      <trkpt lat="47.00505" lon="6.7282">
        <ele>1160.9019847782</ele>
        <time>2021-09-11T08:18:51.368Z</time>
      </trkpt>
      <trkpt lat="47.00498" lon="6.72831">
        <ele>1160.2987190974</ele>
        <time>2021-09-11T08:18:53.479Z</time>
      </trkpt>
      <trkpt lat="47.0049" lon="6.72839">
        <ele>1159.5017590359</ele>
        <time>2021-09-11T08:18:55.523Z</time>
      </trkpt>
      <trkpt lat="47.0048" lon="6.72846">
        <ele>1157.9971873969</ele>
        <time>2021-09-11T08:18:57.862Z</time>
      </trkpt>
      <trkpt lat="47.00472" lon="6.72853">
        <ele>1157.3</ele>
        <time>2021-09-11T08:18:59.829Z</time>
      </trkpt>
      <trkpt lat="47.00467" lon="6.72861">
        <ele>1156.5003492209</ele>
        <time>2021-09-11T08:19:01.392Z</time>
      </trkpt>
      <trkpt lat="47.00459" lon="6.72871">
        <ele>1155.5956021625</ele>
        <time>2021-09-11T08:19:03.611Z</time>
      </trkpt>
      <trkpt lat="47.00452" lon="6.7288">
        <ele>1154.8001911474</ele>
        <time>2021-09-11T08:19:05.576Z</time>
      </trkpt>
      <trkpt lat="47.00437" lon="6.72892">
        <ele>1153.9995360239</ele>
        <time>2021-09-11T08:19:09.465Z</time>
      </trkpt>
      <trkpt lat="47.00425" lon="6.72901">
        <ele>1153.7979339733</ele>
        <time>2021-09-11T08:19:13.752Z</time>
      </trkpt>
      <trkpt lat="47.00421" lon="6.72903">
        <ele>1153.6</ele>
        <time>2021-09-11T08:19:14.714Z</time>
      </trkpt>
      <trkpt lat="47.0042" lon="6.72907">
        <ele>1153.6</ele>
        <time>2021-09-11T08:19:17.395Z</time>
      </trkpt>
      <trkpt lat="47.00417" lon="6.72909">
        <ele>1151.6</ele>
        <time>2021-09-11T08:19:18.090Z</time>
      </trkpt>
      <trkpt lat="47.00412" lon="6.72912">
        <ele>1150.5860086957</ele>
        <time>2021-09-11T08:19:19.231Z</time>
      </trkpt>
      <trkpt lat="47.00412" lon="6.72918">
        <ele>1149</ele>
        <time>2021-09-11T08:19:20.095Z</time>
      </trkpt>
      <trkpt lat="47.00412" lon="6.72922">
        <ele>1149</ele>
        <time>2021-09-11T08:19:22.611Z</time>
      </trkpt>
      <trkpt lat="47.00412" lon="6.72924">
        <ele>1149</ele>
        <time>2021-09-11T08:19:23.870Z</time>
      </trkpt>
      <trkpt lat="47.0041" lon="6.72936">
        <ele>1147.6</ele>
        <time>2021-09-11T08:19:25.648Z</time>
      </trkpt>
      <trkpt lat="47.00409" lon="6.72943">
        <ele>1146.9</ele>
        <time>2021-09-11T08:19:26.678Z</time>
      </trkpt>
      <trkpt lat="47.00408" lon="6.72949">
        <ele>1145.9948305176</ele>
        <time>2021-09-11T08:19:27.567Z</time>
      </trkpt>
      <trkpt lat="47.00407" lon="6.72953">
        <ele>1145.4041547837</ele>
        <time>2021-09-11T08:19:28.181Z</time>
      </trkpt>
      <trkpt lat="47.00404" lon="6.72955">
        <ele>1145</ele>
        <time>2021-09-11T08:19:28.876Z</time>
      </trkpt>
      <trkpt lat="47.00401" lon="6.72957">
        <ele>1145.2509319999</ele>
        <time>2021-09-11T08:19:35.292Z</time>
      </trkpt>
      <trkpt lat="47.00401" lon="6.72955">
        <ele>1143.729975</ele>
        <time>2021-09-11T08:19:35.580Z</time>
      </trkpt>
      <trkpt lat="47.00402" lon="6.72953">
        <ele>1143.2003878179</ele>
        <time>2021-09-11T08:19:35.937Z</time>
      </trkpt>
      <trkpt lat="47.00403" lon="6.72951">
        <ele>1143</ele>
        <time>2021-09-11T08:19:36.294Z</time>
      </trkpt>
      <trkpt lat="47.00405" lon="6.72946">
        <ele>1142.9</ele>
        <time>2021-09-11T08:19:37.408Z</time>
      </trkpt>
      <trkpt lat="47.00404" lon="6.72943">
        <ele>1142.3</ele>
        <time>2021-09-11T08:19:37.888Z</time>
      </trkpt>
      <trkpt lat="47.00404" lon="6.72942">
        <ele>1141.4</ele>
        <time>2021-09-11T08:19:38.032Z</time>
      </trkpt>
      <trkpt lat="47.00402" lon="6.72941">
        <ele>1141.4</ele>
        <time>2021-09-11T08:19:39.982Z</time>
      </trkpt>
      <trkpt lat="47.004" lon="6.72941">
        <ele>1140.6</ele>
        <time>2021-09-11T08:19:40.404Z</time>
      </trkpt>
      <trkpt lat="47.00396" lon="6.72942">
        <ele>1139.5072419301</ele>
        <time>2021-09-11T08:19:41.261Z</time>
      </trkpt>
      <trkpt lat="47.0039" lon="6.72945">
        <ele>1137.3100411044</ele>
        <time>2021-09-11T08:19:42.599Z</time>
      </trkpt>
      <trkpt lat="47.00384" lon="6.7295">
        <ele>1134.7</ele>
        <time>2021-09-11T08:19:44.056Z</time>
      </trkpt>
      <trkpt lat="47.0038" lon="6.72955">
        <ele>1132.9856639253</ele>
        <time>2021-09-11T08:19:45.166Z</time>
      </trkpt>
      <trkpt lat="47.00377" lon="6.72956">
        <ele>1132.0002969295</ele>
        <time>2021-09-11T08:19:45.815Z</time>
      </trkpt>
      <trkpt lat="47.00372" lon="6.72955">
        <ele>1130.5</ele>
        <time>2021-09-11T08:19:46.881Z</time>
      </trkpt>
      <trkpt lat="47.00359" lon="6.72962">
        <ele>1126.4</ele>
        <time>2021-09-11T08:19:49.805Z</time>
      </trkpt>
      <trkpt lat="47.00342" lon="6.72961">
        <ele>1121.8928072058</ele>
        <time>2021-09-11T08:19:53.397Z</time>
      </trkpt>
      <trkpt lat="47.00336" lon="6.72963">
        <ele>1120.3</ele>
        <time>2021-09-11T08:19:54.696Z</time>
      </trkpt>
      <trkpt lat="47.00332" lon="6.72967">
        <ele>1118.6094084974</ele>
        <time>2021-09-11T08:19:55.718Z</time>
      </trkpt>
      <trkpt lat="47.00328" lon="6.72973">
        <ele>1117.2059495333</ele>
        <time>2021-09-11T08:19:56.926Z</time>
      </trkpt>
      <trkpt lat="47.00326" lon="6.72981">
        <ele>1115.3986899368</ele>
        <time>2021-09-11T08:19:58.153Z</time>
      </trkpt>
      <trkpt lat="47.00323" lon="6.72986">
        <ele>1114.5</ele>
        <time>2021-09-11T08:19:59.112Z</time>
      </trkpt>
      <trkpt lat="47.00313" lon="6.72997">
        <ele>1111.5</ele>
        <time>2021-09-11T08:20:01.751Z</time>
      </trkpt>
      <trkpt lat="47.00308" lon="6.73006">
        <ele>1109.2</ele>
        <time>2021-09-11T08:20:03.422Z</time>
      </trkpt>
      <trkpt lat="47.00301" lon="6.73016">
        <ele>1106.7</ele>
        <time>2021-09-11T08:20:05.485Z</time>
      </trkpt>
      <trkpt lat="47.00291" lon="6.73028">
        <ele>1102.8977973412</ele>
        <time>2021-09-11T08:20:08.213Z</time>
      </trkpt>
      <trkpt lat="47.00282" lon="6.73036">
        <ele>1100.3</ele>
        <time>2021-09-11T08:20:10.435Z</time>
      </trkpt>
      <trkpt lat="47.0027" lon="6.73046">
        <ele>1097.3</ele>
        <time>2021-09-11T08:20:13.350Z</time>
      </trkpt>
      <trkpt lat="47.00265" lon="6.73048">
        <ele>1096.1</ele>
        <time>2021-09-11T08:20:14.444Z</time>
      </trkpt>
      <trkpt lat="47.00266" lon="6.73054">
        <ele>1095.7</ele>
        <time>2021-09-11T08:20:15.333Z</time>
      </trkpt>
      <trkpt lat="47.00264" lon="6.73057">
        <ele>1094.6</ele>
        <time>2021-09-11T08:20:15.937Z</time>
      </trkpt>
      <trkpt lat="47.0025" lon="6.73064">
        <ele>1091.4979015985</ele>
        <time>2021-09-11T08:20:19.060Z</time>
      </trkpt>
      <trkpt lat="47.0024" lon="6.73068">
        <ele>1089.9</ele>
        <time>2021-09-11T08:20:21.248Z</time>
      </trkpt>
      <trkpt lat="47.00233" lon="6.73068">
        <ele>1089.5</ele>
        <time>2021-09-11T08:20:22.708Z</time>
      </trkpt>
      <trkpt lat="47.00225" lon="6.73073">
        <ele>1089.7990656643</ele>
        <time>2021-09-11T08:20:34.420Z</time>
      </trkpt>
      <trkpt lat="47.00215" lon="6.73082">
        <ele>1090.7</ele>
        <time>2021-09-11T08:20:57.377Z</time>
      </trkpt>
      <trkpt lat="47.00203" lon="6.73093">
        <ele>1091.7</ele>
        <time>2021-09-11T08:21:23.782Z</time>
      </trkpt>
      <trkpt lat="47.00197" lon="6.73097">
        <ele>1093.7</ele>
        <time>2021-09-11T08:21:47.236Z</time>
      </trkpt>
      <trkpt lat="47.00192" lon="6.73098">
        <ele>1093.4986711698</ele>
        <time>2021-09-11T08:21:48.461Z</time>
      </trkpt>
      <trkpt lat="47.00188" lon="6.73101">
        <ele>1093</ele>
        <time>2021-09-11T08:21:49.409Z</time>
      </trkpt>
      <trkpt lat="47.00186" lon="6.7311">
        <ele>1091.6</ele>
        <time>2021-09-11T08:21:50.772Z</time>
      </trkpt>
      <trkpt lat="47.00182" lon="6.73121">
        <ele>1090.8022369898</ele>
        <time>2021-09-11T08:21:52.567Z</time>
      </trkpt>
      <trkpt lat="47.00174" lon="6.73127">
        <ele>1090.5</ele>
        <time>2021-09-11T08:21:54.885Z</time>
      </trkpt>
      <trkpt lat="47.00165" lon="6.73136">
        <ele>1090.2998877545</ele>
        <time>2021-09-11T08:21:58.209Z</time>
      </trkpt>
      <trkpt lat="47.00162" lon="6.73138">
        <ele>1090.2</ele>
        <time>2021-09-11T08:21:59.089Z</time>
      </trkpt>
      <trkpt lat="47.00161" lon="6.73141">
        <ele>1090.2</ele>
        <time>2021-09-11T08:22:01.190Z</time>
      </trkpt>
      <trkpt lat="47.00162" lon="6.7315">
        <ele>1089.5052476319</ele>
        <time>2021-09-11T08:22:02.503Z</time>
      </trkpt>
      <trkpt lat="47.00161" lon="6.73156">
        <ele>1090.2955987611</ele>
        <time>2021-09-11T08:22:17.492Z</time>
      </trkpt>
      <trkpt lat="47.00156" lon="6.73158">
        <ele>1089.59885664</ele>
        <time>2021-09-11T08:22:18.587Z</time>
      </trkpt>
      <trkpt lat="47.00153" lon="6.73163">
        <ele>1088.9</ele>
        <time>2021-09-11T08:22:19.546Z</time>
      </trkpt>
      <trkpt lat="47.0015" lon="6.73173">
        <ele>1088.4</ele>
        <time>2021-09-11T08:22:21.119Z</time>
      </trkpt>
      <trkpt lat="47.00149" lon="6.7318">
        <ele>1088.4</ele>
        <time>2021-09-11T08:22:25.618Z</time>
      </trkpt>
      <trkpt lat="47.0015" lon="6.73216">
        <ele>1084.59468288</ele>
        <time>2021-09-11T08:22:30.806Z</time>
      </trkpt>
      <trkpt lat="47.00152" lon="6.73231">
        <ele>1082.9</ele>
        <time>2021-09-11T08:22:33.007Z</time>
      </trkpt>
      <trkpt lat="47.00148" lon="6.73229">
        <ele>1081.6885421774</ele>
        <time>2021-09-11T08:22:33.899Z</time>
      </trkpt>
      <trkpt lat="47.00145" lon="6.73226">
        <ele>1080.8026522546</ele>
        <time>2021-09-11T08:22:34.666Z</time>
      </trkpt>
      <trkpt lat="47.00141" lon="6.73222">
        <ele>1079.9</ele>
        <time>2021-09-11T08:22:35.688Z</time>
      </trkpt>
      <trkpt lat="47.00137" lon="6.7322">
        <ele>1078.1</ele>
        <time>2021-09-11T08:22:36.580Z</time>
      </trkpt>
      <trkpt lat="47.00132" lon="6.73216">
        <ele>1076.5990598028</ele>
        <time>2021-09-11T08:22:37.783Z</time>
      </trkpt>
      <trkpt lat="47.00129" lon="6.7321">
        <ele>1075.9001873532</ele>
        <time>2021-09-11T08:22:38.854Z</time>
      </trkpt>
      <trkpt lat="47.00123" lon="6.73203">
        <ele>1073.7</ele>
        <time>2021-09-11T08:22:40.473Z</time>
      </trkpt>
      <trkpt lat="47.00121" lon="6.73204">
        <ele>1073.1060479343</ele>
        <time>2021-09-11T08:22:40.919Z</time>
      </trkpt>
      <trkpt lat="47.0012" lon="6.73209">
        <ele>1072.3037475425</ele>
        <time>2021-09-11T08:22:41.669Z</time>
      </trkpt>
      <trkpt lat="47.00119" lon="6.73223">
        <ele>1068.8</ele>
        <time>2021-09-11T08:22:43.696Z</time>
      </trkpt>
      <trkpt lat="47.00121" lon="6.73233">
        <ele>1069.2</ele>
        <time>2021-09-11T08:22:55.653Z</time>
      </trkpt>
      <trkpt lat="47.00123" lon="6.7326">
        <ele>1066.4914115762</ele>
        <time>2021-09-11T08:22:59.563Z</time>
      </trkpt>
      <trkpt lat="47.0013" lon="6.73287">
        <ele>1064.2850695667</ele>
        <time>2021-09-11T08:23:03.722Z</time>
      </trkpt>
      <trkpt lat="47.00124" lon="6.73285">
        <ele>1062.1000345787</ele>
        <time>2021-09-11T08:23:05.022Z</time>
      </trkpt>
      <trkpt lat="47.00115" lon="6.73275">
        <ele>1059.6949723206</ele>
        <time>2021-09-11T08:23:07.406Z</time>
      </trkpt>
      <trkpt lat="47.00107" lon="6.73268">
        <ele>1057.6</ele>
        <time>2021-09-11T08:23:09.372Z</time>
      </trkpt>
      <trkpt lat="47.00101" lon="6.7326">
        <ele>1055.4620345947</ele>
        <time>2021-09-11T08:23:11.085Z</time>
      </trkpt>
      <trkpt lat="47.001" lon="6.73259">
        <ele>1053.7</ele>
        <time>2021-09-11T08:23:11.340Z</time>
      </trkpt>
      <trkpt lat="47.001" lon="6.73259">
        <ele>1053.7</ele>
        <time>2021-09-11T08:23:11.723Z</time>
      </trkpt>
      <trkpt lat="47.001" lon="6.73259">
        <ele>1053.7</ele>
        <time>2021-09-11T08:23:12.105Z</time>
      </trkpt>
      <trkpt lat="47.0009" lon="6.73248">
        <ele>1051.8985707247</ele>
        <time>2021-09-11T08:23:14.744Z</time>
      </trkpt>
      <trkpt lat="47.00083" lon="6.73237">
        <ele>1049.8</ele>
        <time>2021-09-11T08:23:16.911Z</time>
      </trkpt>
      <trkpt lat="47.00079" lon="6.73232">
        <ele>1047.7</ele>
        <time>2021-09-11T08:23:18.020Z</time>
      </trkpt>
      <trkpt lat="47.00076" lon="6.73233">
        <ele>1047.2</ele>
        <time>2021-09-11T08:23:18.670Z</time>
      </trkpt>
      <trkpt lat="47.00075" lon="6.73237">
        <ele>1047</ele>
        <time>2021-09-11T08:23:19.283Z</time>
      </trkpt>
      <trkpt lat="47.00079" lon="6.73266">
        <ele>1044.8</ele>
        <time>2021-09-11T08:23:23.543Z</time>
      </trkpt>
      <trkpt lat="47.0007" lon="6.73263">
        <ele>1042.2066879001</ele>
        <time>2021-09-11T08:23:25.492Z</time>
      </trkpt>
      <trkpt lat="47.00061" lon="6.73255">
        <ele>1038.7902559483</ele>
        <time>2021-09-11T08:23:27.714Z</time>
      </trkpt>
      <trkpt lat="47.00057" lon="6.73253">
        <ele>1037.7</ele>
        <time>2021-09-11T08:23:28.606Z</time>
      </trkpt>
      <trkpt lat="47.00054" lon="6.73252">
        <ele>1036.702756444</ele>
        <time>2021-09-11T08:23:29.256Z</time>
      </trkpt>
      <trkpt lat="47.00048" lon="6.73243">
        <ele>1034.3011742705</ele>
        <time>2021-09-11T08:23:31.068Z</time>
      </trkpt>
      <trkpt lat="47.00043" lon="6.73232">
        <ele>1031.9</ele>
        <time>2021-09-11T08:23:32.971Z</time>
      </trkpt>
      <trkpt lat="47.00038" lon="6.73226">
        <ele>1029.8986018166</ele>
        <time>2021-09-11T08:23:34.335Z</time>
      </trkpt>
      <trkpt lat="47.00035" lon="6.73222">
        <ele>1029.5</ele>
        <time>2021-09-11T08:23:35.191Z</time>
      </trkpt>
      <trkpt lat="47.0003" lon="6.73218">
        <ele>1028.1</ele>
        <time>2021-09-11T08:23:36.394Z</time>
      </trkpt>
      <trkpt lat="47.00025" lon="6.73212">
        <ele>1026.9</ele>
        <time>2021-09-11T08:23:37.758Z</time>
      </trkpt>
      <trkpt lat="47.00019" lon="6.73214">
        <ele>1026.1959393086</ele>
        <time>2021-09-11T08:23:39.057Z</time>
      </trkpt>
      <trkpt lat="47.00016" lon="6.73211">
        <ele>1025.9</ele>
        <time>2021-09-11T08:23:39.824Z</time>
      </trkpt>
      <trkpt lat="47.00013" lon="6.7321">
        <ele>1025.6026000645</ele>
        <time>2021-09-11T08:23:40.473Z</time>
      </trkpt>
      <trkpt lat="47.00013" lon="6.73206">
        <ele>1025.7988667742</ele>
        <time>2021-09-11T08:23:45.613Z</time>
      </trkpt>
      <trkpt lat="47.00011" lon="6.732">
        <ele>1026.1988026093</ele>
        <time>2021-09-11T08:23:55.380Z</time>
      </trkpt>
      <trkpt lat="47.00005" lon="6.73187">
        <ele>1028.1036568805</ele>
        <time>2021-09-11T08:24:33.476Z</time>
      </trkpt>
      <trkpt lat="46.99999" lon="6.73175">
        <ele>1030</ele>
        <time>2021-09-11T08:25:09.588Z</time>
      </trkpt>
      <trkpt lat="46.99987" lon="6.73187">
        <ele>1028.9975457398</ele>
        <time>2021-09-11T08:25:12.654Z</time>
      </trkpt>
      <trkpt lat="46.99986" lon="6.73189">
        <ele>1028.8015000813</ele>
        <time>2021-09-11T08:25:13.011Z</time>
      </trkpt>
      <trkpt lat="46.99984" lon="6.73191">
        <ele>1028.6</ele>
        <time>2021-09-11T08:25:13.522Z</time>
      </trkpt>
      <trkpt lat="46.99982" lon="6.73191">
        <ele>1028.5</ele>
        <time>2021-09-11T08:25:13.965Z</time>
      </trkpt>
      <trkpt lat="46.9998" lon="6.73189">
        <ele>1028.6</ele>
        <time>2021-09-11T08:25:17.558Z</time>
      </trkpt>
      <trkpt lat="46.99964" lon="6.73165">
        <ele>1028.6</ele>
        <time>2021-09-11T08:25:38.675Z</time>
      </trkpt>
      <trkpt lat="46.9996" lon="6.73161">
        <ele>1028.6</ele>
        <time>2021-09-11T08:25:43.142Z</time>
      </trkpt>
      <trkpt lat="46.99957" lon="6.73159">
        <ele>1028.5004299591</ele>
        <time>2021-09-11T08:25:44.023Z</time>
      </trkpt>
      <trkpt lat="46.99953" lon="6.73157">
        <ele>1028.5</ele>
        <time>2021-09-11T08:25:47.916Z</time>
      </trkpt>
      <trkpt lat="46.99951" lon="6.73155">
        <ele>1028.4</ele>
        <time>2021-09-11T08:25:48.495Z</time>
      </trkpt>
      <trkpt lat="46.99943" lon="6.73148">
        <ele>1028.3</ele>
        <time>2021-09-11T08:25:51.623Z</time>
      </trkpt>
      <trkpt lat="46.99944" lon="6.73148">
        <ele>1028.3</ele>
        <time>2021-09-11T08:25:52.346Z</time>
      </trkpt>
      <trkpt lat="46.99943" lon="6.73148">
        <ele>1028.3</ele>
        <time>2021-09-11T08:25:53.069Z</time>
      </trkpt>
      <trkpt lat="46.9994" lon="6.73144">
        <ele>1028.3</ele>
        <time>2021-09-11T08:25:56.810Z</time>
      </trkpt>
      <trkpt lat="46.99936" lon="6.73142">
        <ele>1028.3</ele>
        <time>2021-09-11T08:26:00.709Z</time>
      </trkpt>
      <trkpt lat="46.99932" lon="6.73138">
        <ele>1028.4</ele>
        <time>2021-09-11T08:26:06.218Z</time>
      </trkpt>
      <trkpt lat="46.99928" lon="6.73132">
        <ele>1028.7</ele>
        <time>2021-09-11T08:26:15.598Z</time>
      </trkpt>
      <trkpt lat="46.99907" lon="6.73109">
        <ele>1027.9</ele>
        <time>2021-09-11T08:26:22.581Z</time>
      </trkpt>
      <trkpt lat="46.99905" lon="6.73108">
        <ele>1027.9</ele>
        <time>2021-09-11T08:26:24.531Z</time>
      </trkpt>
      <trkpt lat="46.999" lon="6.73107">
        <ele>1028.199843385</ele>
        <time>2021-09-11T08:26:33.207Z</time>
      </trkpt>
      <trkpt lat="46.99894" lon="6.73097">
        <ele>1028.6990083743</ele>
        <time>2021-09-11T08:26:48.352Z</time>
      </trkpt>
      <trkpt lat="46.99883" lon="6.73077">
        <ele>1029.6</ele>
        <time>2021-09-11T08:27:16.885Z</time>
      </trkpt>
      <trkpt lat="46.99876" lon="6.73067">
        <ele>1030.1</ele>
        <time>2021-09-11T08:27:32.772Z</time>
      </trkpt>
      <trkpt lat="46.9987" lon="6.73056">
        <ele>1030.4</ele>
        <time>2021-09-11T08:27:45.186Z</time>
      </trkpt>
      <trkpt lat="46.9987" lon="6.73056">
        <ele>1030.4</ele>
        <time>2021-09-11T08:27:45.186Z</time>
      </trkpt>
      <trkpt lat="46.9987" lon="6.73056">
        <ele>1031</ele>
        <time>2021-09-11T08:27:46.567Z</time>
      </trkpt>
      <trkpt lat="46.9987" lon="6.73056">
        <ele>1030.4</ele>
        <time>2021-09-11T08:27:46.649Z</time>
      </trkpt>
      <trkpt lat="46.99854" lon="6.73023">
        <ele>1031.5</ele>
        <time>2021-09-11T08:28:26.761Z</time>
      </trkpt>
      <trkpt lat="46.99849" lon="6.73023">
        <ele>1031.2</ele>
        <time>2021-09-11T08:28:27.780Z</time>
      </trkpt>
      <trkpt lat="46.99829" lon="6.73045">
        <ele>1024.6</ele>
        <time>2021-09-11T08:28:33.059Z</time>
      </trkpt>
      <trkpt lat="46.99821" lon="6.73029">
        <ele>1023.8</ele>
        <time>2021-09-11T08:28:35.834Z</time>
      </trkpt>
      <trkpt lat="46.99821" lon="6.7303">
        <ele>1023.8</ele>
        <time>2021-09-11T08:28:36.190Z</time>
      </trkpt>
      <trkpt lat="46.99821" lon="6.73029">
        <ele>1023.8</ele>
        <time>2021-09-11T08:28:36.545Z</time>
      </trkpt>
      <trkpt lat="46.99803" lon="6.72995">
        <ele>1023.1</ele>
        <time>2021-09-11T08:28:44.951Z</time>
      </trkpt>
      <trkpt lat="46.99798" lon="6.73">
        <ele>1022.1073905415</ele>
        <time>2021-09-11T08:28:46.229Z</time>
      </trkpt>
      <trkpt lat="46.99791" lon="6.73007">
        <ele>1020.8990202462</ele>
        <time>2021-09-11T08:28:48.018Z</time>
      </trkpt>
      <trkpt lat="46.99787" lon="6.73011">
        <ele>1019.7035313846</ele>
        <time>2021-09-11T08:28:49.040Z</time>
      </trkpt>
      <trkpt lat="46.99779" lon="6.7302">
        <ele>1018.4</ele>
        <time>2021-09-11T08:28:51.169Z</time>
      </trkpt>
      <trkpt lat="46.99759" lon="6.72981">
        <ele>1017.9</ele>
        <time>2021-09-11T08:29:01.745Z</time>
      </trkpt>
      <trkpt lat="46.9976" lon="6.72982">
        <ele>1017.9</ele>
        <time>2021-09-11T08:29:02.302Z</time>
      </trkpt>
      <trkpt lat="46.99759" lon="6.72981">
        <ele>1017.9</ele>
        <time>2021-09-11T08:29:02.859Z</time>
      </trkpt>
      <trkpt lat="46.99751" lon="6.72966">
        <ele>1017.5</ele>
        <time>2021-09-11T08:29:06.309Z</time>
      </trkpt>
      <trkpt lat="46.99732" lon="6.72931">
        <ele>1016.9</ele>
        <time>2021-09-11T08:29:15.475Z</time>
      </trkpt>
      <trkpt lat="46.99721" lon="6.72911">
        <ele>1016.6</ele>
        <time>2021-09-11T08:29:20.903Z</time>
      </trkpt>
      <trkpt lat="46.99687" lon="6.72847">
        <ele>1015.7</ele>
        <time>2021-09-11T08:29:38.219Z</time>
      </trkpt>
      <trkpt lat="46.99688" lon="6.72848">
        <ele>1015.7</ele>
        <time>2021-09-11T08:29:38.747Z</time>
      </trkpt>
      <trkpt lat="46.99687" lon="6.72847">
        <ele>1015.7</ele>
        <time>2021-09-11T08:29:39.275Z</time>
      </trkpt>
      <trkpt lat="46.99672" lon="6.72818">
        <ele>1014.9</ele>
        <time>2021-09-11T08:29:45.772Z</time>
      </trkpt>
      <trkpt lat="46.99659" lon="6.72796">
        <ele>1014.4</ele>
        <time>2021-09-11T08:29:51.373Z</time>
      </trkpt>
      <trkpt lat="46.99652" lon="6.72788">
        <ele>1014.2</ele>
        <time>2021-09-11T08:29:53.952Z</time>
      </trkpt>
      <trkpt lat="46.9963" lon="6.72762">
        <ele>1013.0002691727</ele>
        <time>2021-09-11T08:30:00.646Z</time>
      </trkpt>
      <trkpt lat="46.996" lon="6.72724">
        <ele>1011.2</ele>
        <time>2021-09-11T08:30:09.786Z</time>
      </trkpt>
      <trkpt lat="46.99575" lon="6.72696">
        <ele>1009.7</ele>
        <time>2021-09-11T08:30:16.894Z</time>
      </trkpt>
      <trkpt lat="46.99568" lon="6.72689">
        <ele>1009.3</ele>
        <time>2021-09-11T08:30:18.816Z</time>
      </trkpt>
      <trkpt lat="46.99563" lon="6.72685">
        <ele>1008.9997049621</ele>
        <time>2021-09-11T08:30:20.048Z</time>
      </trkpt>
      <trkpt lat="46.99558" lon="6.72682">
        <ele>1008.7019563217</ele>
        <time>2021-09-11T08:30:21.193Z</time>
      </trkpt>
      <trkpt lat="46.99552" lon="6.72681">
        <ele>1008.2929621176</ele>
        <time>2021-09-11T08:30:22.468Z</time>
      </trkpt>
      <trkpt lat="46.99551" lon="6.72681">
        <ele>1008.1</ele>
        <time>2021-09-11T08:30:22.679Z</time>
      </trkpt>
      <trkpt lat="46.99552" lon="6.72681">
        <ele>1008.1</ele>
        <time>2021-09-11T08:30:23.329Z</time>
      </trkpt>
      <trkpt lat="46.99551" lon="6.72681">
        <ele>1008.1</ele>
        <time>2021-09-11T08:30:23.979Z</time>
      </trkpt>
      <trkpt lat="46.99543" lon="6.7268">
        <ele>1007.9</ele>
        <time>2021-09-11T08:30:26.251Z</time>
      </trkpt>
      <trkpt lat="46.99523" lon="6.7268">
        <ele>1006.7</ele>
        <time>2021-09-11T08:30:30.325Z</time>
      </trkpt>
      <trkpt lat="46.99515" lon="6.72682">
        <ele>1006.3</ele>
        <time>2021-09-11T08:30:32.133Z</time>
      </trkpt>
      <trkpt lat="46.99513" lon="6.72678">
        <ele>1006.3</ele>
        <time>2021-09-11T08:30:35.254Z</time>
      </trkpt>
      <trkpt lat="46.99509" lon="6.72672">
        <ele>1006.2004179709</ele>
        <time>2021-09-11T08:30:37.020Z</time>
      </trkpt>
      <trkpt lat="46.99497" lon="6.72659">
        <ele>1005.4</ele>
        <time>2021-09-11T08:30:40.222Z</time>
      </trkpt>
      <trkpt lat="46.99458" lon="6.72617">
        <ele>1002.6995317224</ele>
        <time>2021-09-11T08:30:50.421Z</time>
      </trkpt>
      <trkpt lat="46.9943" lon="6.72643">
        <ele>998.9</ele>
        <time>2021-09-11T08:30:57.418Z</time>
      </trkpt>
      <trkpt lat="46.99387" lon="6.72689">
        <ele>996.1</ele>
        <time>2021-09-11T08:31:08.942Z</time>
      </trkpt>
      <trkpt lat="46.9936" lon="6.72718">
        <ele>995.7</ele>
        <time>2021-09-11T08:31:20.002Z</time>
      </trkpt>
      <trkpt lat="46.9936" lon="6.72719">
        <ele>995.7</ele>
        <time>2021-09-11T08:31:20.609Z</time>
      </trkpt>
      <trkpt lat="46.9936" lon="6.72718">
        <ele>995.7</ele>
        <time>2021-09-11T08:31:21.215Z</time>
      </trkpt>
      <trkpt lat="46.9935" lon="6.72729">
        <ele>995.4</ele>
        <time>2021-09-11T08:31:24.789Z</time>
      </trkpt>
      <trkpt lat="46.99337" lon="6.72742">
        <ele>995.20043645666</ele>
        <time>2021-09-11T08:31:29.940Z</time>
      </trkpt>
      <trkpt lat="46.99314" lon="6.72767">
        <ele>995.7</ele>
        <time>2021-09-11T08:32:01.380Z</time>
      </trkpt>
      <trkpt lat="46.99308" lon="6.72774">
        <ele>995.89948859688</ele>
        <time>2021-09-11T08:32:10.668Z</time>
      </trkpt>
      <trkpt lat="46.99301" lon="6.72783">
        <ele>995.9998296973</ele>
        <time>2021-09-11T08:32:20.199Z</time>
      </trkpt>
      <trkpt lat="46.99294" lon="6.72796">
        <ele>996.20067042934</ele>
        <time>2021-09-11T08:32:32.649Z</time>
      </trkpt>
      <trkpt lat="46.9929" lon="6.72804">
        <ele>996.3</ele>
        <time>2021-09-11T08:32:39.860Z</time>
      </trkpt>
      <trkpt lat="46.99281" lon="6.72825">
        <ele>996.49961764506</ele>
        <time>2021-09-11T08:32:57.359Z</time>
      </trkpt>
      <trkpt lat="46.99273" lon="6.72848">
        <ele>996.6</ele>
        <time>2021-09-11T08:33:14.501Z</time>
      </trkpt>
      <trkpt lat="46.99264" lon="6.72874">
        <ele>996.5</ele>
        <time>2021-09-11T08:33:31.536Z</time>
      </trkpt>
      <trkpt lat="46.99256" lon="6.72897">
        <ele>996.20043842366</ele>
        <time>2021-09-11T08:33:36.998Z</time>
      </trkpt>
      <trkpt lat="46.99247" lon="6.72923">
        <ele>996.39956481743</ele>
        <time>2021-09-11T08:33:57.199Z</time>
      </trkpt>
      <trkpt lat="46.99208" lon="6.73039">
        <ele>996.50007948344</ele>
        <time>2021-09-11T08:35:19.441Z</time>
      </trkpt>
      <trkpt lat="46.99201" lon="6.7306">
        <ele>996.6</ele>
        <time>2021-09-11T08:35:35.046Z</time>
      </trkpt>
      <trkpt lat="46.99176" lon="6.73135">
        <ele>996.5</ele>
        <time>2021-09-11T08:36:26.201Z</time>
      </trkpt>
      <trkpt lat="46.99152" lon="6.73205">
        <ele>996.5</ele>
        <time>2021-09-11T08:37:15.504Z</time>
      </trkpt>
      <trkpt lat="46.99124" lon="6.73287">
        <ele>996.39999127472</ele>
        <time>2021-09-11T08:38:11.832Z</time>
      </trkpt>
      <trkpt lat="46.99098" lon="6.73362">
        <ele>996.3</ele>
        <time>2021-09-11T08:39:03.399Z</time>
      </trkpt>
      <trkpt lat="46.99059" lon="6.7348">
        <ele>996.2</ele>
        <time>2021-09-11T08:40:24.526Z</time>
      </trkpt>
      <trkpt lat="46.99055" lon="6.7349">
        <ele>996.3</ele>
        <time>2021-09-11T08:40:32.778Z</time>
      </trkpt>
      <trkpt lat="46.99051" lon="6.735">
        <ele>996.4</ele>
        <time>2021-09-11T08:40:41.029Z</time>
      </trkpt>
      <trkpt lat="46.99044" lon="6.73523">
        <ele>996.4</ele>
        <time>2021-09-11T08:40:56.878Z</time>
      </trkpt>
      <trkpt lat="46.99021" lon="6.73588">
        <ele>996.1</ele>
        <time>2021-09-11T08:41:39.077Z</time>
      </trkpt>
      <trkpt lat="46.99013" lon="6.73613">
        <ele>996.1</ele>
        <time>2021-09-11T08:41:56.455Z</time>
      </trkpt>
      <trkpt lat="46.99006" lon="6.73637">
        <ele>995.9</ele>
        <time>2021-09-11T08:42:02.394Z</time>
      </trkpt>
      <trkpt lat="46.98998" lon="6.73657">
        <ele>996.3</ele>
        <time>2021-09-11T08:42:21.385Z</time>
      </trkpt>
      <trkpt lat="46.98991" lon="6.73673">
        <ele>996.4</ele>
        <time>2021-09-11T08:42:34.256Z</time>
      </trkpt>
      <trkpt lat="46.98985" lon="6.73683">
        <ele>996.5</ele>
        <time>2021-09-11T08:42:43.577Z</time>
      </trkpt>
      <trkpt lat="46.98981" lon="6.73691">
        <ele>996.5</ele>
        <time>2021-09-11T08:42:49.820Z</time>
      </trkpt>
      <trkpt lat="46.9897" lon="6.73704">
        <ele>996.3</ele>
        <time>2021-09-11T08:42:54.359Z</time>
      </trkpt>
      <trkpt lat="46.98962" lon="6.73713">
        <ele>996.3</ele>
        <time>2021-09-11T08:43:03.663Z</time>
      </trkpt>
      <trkpt lat="46.98952" lon="6.73724">
        <ele>996.3</ele>
        <time>2021-09-11T08:43:15.197Z</time>
      </trkpt>
      <trkpt lat="46.98941" lon="6.73733">
        <ele>996.5</ele>
        <time>2021-09-11T08:43:28.797Z</time>
      </trkpt>
      <trkpt lat="46.98933" lon="6.73737">
        <ele>996.3</ele>
        <time>2021-09-11T08:43:31.222Z</time>
      </trkpt>
      <trkpt lat="46.98929" lon="6.73739">
        <ele>996.2</ele>
        <time>2021-09-11T08:43:32.435Z</time>
      </trkpt>
      <trkpt lat="46.98926" lon="6.73739">
        <ele>996.29964351515</ele>
        <time>2021-09-11T08:43:36.413Z</time>
      </trkpt>
      <trkpt lat="46.98923" lon="6.7374">
        <ele>996.3</ele>
        <time>2021-09-11T08:43:39.254Z</time>
      </trkpt>
      <trkpt lat="46.9892" lon="6.73739">
        <ele>996.3</ele>
        <time>2021-09-11T08:43:42.093Z</time>
      </trkpt>
      <trkpt lat="46.98908" lon="6.73734">
        <ele>995.80100005804</ele>
        <time>2021-09-11T08:43:45.117Z</time>
      </trkpt>
      <trkpt lat="46.98895" lon="6.73728">
        <ele>995.2</ele>
        <time>2021-09-11T08:43:48.297Z</time>
      </trkpt>
      <trkpt lat="46.98889" lon="6.73726">
        <ele>994.99876855377</ele>
        <time>2021-09-11T08:43:49.900Z</time>
      </trkpt>
      <trkpt lat="46.98886" lon="6.73723">
        <ele>994.79754092596</ele>
        <time>2021-09-11T08:43:50.668Z</time>
      </trkpt>
      <trkpt lat="46.98884" lon="6.7372">
        <ele>994.6</ele>
        <time>2021-09-11T08:43:51.272Z</time>
      </trkpt>
      <trkpt lat="46.98879" lon="6.73713">
        <ele>994.30147598216</ele>
        <time>2021-09-11T08:43:52.899Z</time>
      </trkpt>
      <trkpt lat="46.98869" lon="6.73702">
        <ele>993.8</ele>
        <time>2021-09-11T08:43:55.926Z</time>
      </trkpt>
      <trkpt lat="46.98863" lon="6.73697">
        <ele>993.5</ele>
        <time>2021-09-11T08:43:57.546Z</time>
      </trkpt>
      <trkpt lat="46.98851" lon="6.73688">
        <ele>992.69884213231</ele>
        <time>2021-09-11T08:44:00.304Z</time>
      </trkpt>
      <trkpt lat="46.98845" lon="6.73691">
        <ele>992.3011412562</ele>
        <time>2021-09-11T08:44:01.568Z</time>
      </trkpt>
      <trkpt lat="46.9884" lon="6.73695">
        <ele>992.60202771984</ele>
        <time>2021-09-11T08:44:10.930Z</time>
      </trkpt>
      <trkpt lat="46.98837" lon="6.73699">
        <ele>993.2</ele>
        <time>2021-09-11T08:44:25.361Z</time>
      </trkpt>
      <trkpt lat="46.98836" lon="6.737">
        <ele>993.2</ele>
        <time>2021-09-11T08:44:26.477Z</time>
      </trkpt>
      <trkpt lat="46.98834" lon="6.73706">
        <ele>992.90361354029</ele>
        <time>2021-09-11T08:44:27.369Z</time>
      </trkpt>
      <trkpt lat="46.98832" lon="6.73711">
        <ele>993.2</ele>
        <time>2021-09-11T08:44:34.995Z</time>
      </trkpt>
      <trkpt lat="46.98826" lon="6.73717">
        <ele>993.80147716667</ele>
        <time>2021-09-11T08:44:49.921Z</time>
      </trkpt>
      <trkpt lat="46.98822" lon="6.73719">
        <ele>994.3</ele>
        <time>2021-09-11T08:45:02.211Z</time>
      </trkpt>
      <trkpt lat="46.98819" lon="6.7372">
        <ele>994.9</ele>
        <time>2021-09-11T08:45:13.159Z</time>
      </trkpt>
      <trkpt lat="46.98817" lon="6.73719">
        <ele>995.2</ele>
        <time>2021-09-11T08:45:20.679Z</time>
      </trkpt>
      <trkpt lat="46.98813" lon="6.73718">
        <ele>994.9</ele>
        <time>2021-09-11T08:45:21.536Z</time>
      </trkpt>
      <trkpt lat="46.9881" lon="6.73715">
        <ele>993.8</ele>
        <time>2021-09-11T08:45:22.302Z</time>
      </trkpt>
      <trkpt lat="46.98807" lon="6.73716">
        <ele>993.8</ele>
        <time>2021-09-11T08:45:25.141Z</time>
      </trkpt>
      <trkpt lat="46.98802" lon="6.73719">
        <ele>993.2</ele>
        <time>2021-09-11T08:45:26.281Z</time>
      </trkpt>
      <trkpt lat="46.98794" lon="6.73727">
        <ele>992.59407120893</ele>
        <time>2021-09-11T08:45:28.214Z</time>
      </trkpt>
      <trkpt lat="46.98787" lon="6.73733">
        <ele>991.5</ele>
        <time>2021-09-11T08:45:29.926Z</time>
      </trkpt>
      <trkpt lat="46.98783" lon="6.73735">
        <ele>990.3</ele>
        <time>2021-09-11T08:45:30.819Z</time>
      </trkpt>
      <trkpt lat="46.9878" lon="6.73737">
        <ele>990.3</ele>
        <time>2021-09-11T08:45:33.859Z</time>
      </trkpt>
      <trkpt lat="46.98779" lon="6.73739">
        <ele>990.3</ele>
        <time>2021-09-11T08:45:35.420Z</time>
      </trkpt>
      <trkpt lat="46.98773" lon="6.73743">
        <ele>990.6</ele>
        <time>2021-09-11T08:45:45.749Z</time>
      </trkpt>
      <trkpt lat="46.9877" lon="6.73745">
        <ele>990.6</ele>
        <time>2021-09-11T08:45:48.790Z</time>
      </trkpt>
      <trkpt lat="46.98766" lon="6.73748">
        <ele>991.8</ele>
        <time>2021-09-11T08:46:04.779Z</time>
      </trkpt>
      <trkpt lat="46.9876" lon="6.73755">
        <ele>992.9</ele>
        <time>2021-09-11T08:46:32.067Z</time>
      </trkpt>
      <trkpt lat="46.98746" lon="6.73767">
        <ele>993.79830798049</ele>
        <time>2021-09-11T08:46:59.187Z</time>
      </trkpt>
      <trkpt lat="46.98699" lon="6.73817">
        <ele>995.1</ele>
        <time>2021-09-11T08:48:06.606Z</time>
      </trkpt>
      <trkpt lat="46.987" lon="6.73817">
        <ele>995.1</ele>
        <time>2021-09-11T08:48:07.257Z</time>
      </trkpt>
      <trkpt lat="46.98699" lon="6.73817">
        <ele>995.1</ele>
        <time>2021-09-11T08:48:07.909Z</time>
      </trkpt>
      <trkpt lat="46.98686" lon="6.73831">
        <ele>996.3990351986</ele>
        <time>2021-09-11T08:48:40.439Z</time>
      </trkpt>
      <trkpt lat="46.98667" lon="6.7385">
        <ele>996.4</ele>
        <time>2021-09-11T08:49:01.667Z</time>
      </trkpt>
      <trkpt lat="46.98663" lon="6.73854">
        <ele>996.4</ele>
        <time>2021-09-11T08:49:06.134Z</time>
      </trkpt>
      <trkpt lat="46.98659" lon="6.73852">
        <ele>996.4</ele>
        <time>2021-09-11T08:49:10.033Z</time>
      </trkpt>
      <trkpt lat="46.98649" lon="6.73846">
        <ele>996.39800653186</ele>
        <time>2021-09-11T08:49:19.974Z</time>
      </trkpt>
      <trkpt lat="46.98641" lon="6.73842">
        <ele>995.99966339024</ele>
        <time>2021-09-11T08:49:21.893Z</time>
      </trkpt>
      <trkpt lat="46.98639" lon="6.73843">
        <ele>995.9</ele>
        <time>2021-09-11T08:49:22.372Z</time>
      </trkpt>
      <trkpt lat="46.98584" lon="6.73961">
        <ele>997.9</ele>
        <time>2021-09-11T08:51:13.130Z</time>
      </trkpt>
      <trkpt lat="46.9857" lon="6.73958">
        <ele>997.6</ele>
        <time>2021-09-11T08:51:17.305Z</time>
      </trkpt>
      <trkpt lat="46.98509" lon="6.73944">
        <ele>997.2</ele>
        <time>2021-09-11T08:52:09.125Z</time>
      </trkpt>
      <trkpt lat="46.98507" lon="6.73944">
        <ele>997.2</ele>
        <time>2021-09-11T08:52:10.970Z</time>
      </trkpt>
      <trkpt lat="46.98495" lon="6.73942">
        <ele>997.00001069133</ele>
        <time>2021-09-11T08:52:14.736Z</time>
      </trkpt>
      <trkpt lat="46.98432" lon="6.73922">
        <ele>997.40015025261</ele>
        <time>2021-09-11T08:53:17.792Z</time>
      </trkpt>
      <trkpt lat="46.98403" lon="6.73912">
        <ele>997.99961220929</ele>
        <time>2021-09-11T08:53:51.488Z</time>
      </trkpt>
      <trkpt lat="46.98366" lon="6.73896">
        <ele>998</ele>
        <time>2021-09-11T08:54:27.082Z</time>
      </trkpt>
      <trkpt lat="46.98315" lon="6.73867">
        <ele>998.50007462537</ele>
        <time>2021-09-11T08:55:22.162Z</time>
      </trkpt>
      <trkpt lat="46.98275" lon="6.73842">
        <ele>998.9</ele>
        <time>2021-09-11T08:56:05.971Z</time>
      </trkpt>
      <trkpt lat="46.98246" lon="6.73828">
        <ele>999.4</ele>
        <time>2021-09-11T08:56:39.111Z</time>
      </trkpt>
      <trkpt lat="46.98216" lon="6.73812">
        <ele>999.4</ele>
        <time>2021-09-11T08:57:08.564Z</time>
      </trkpt>
      <trkpt lat="46.9819" lon="6.73801">
        <ele>999.49999844786</ele>
        <time>2021-09-11T08:57:34.405Z</time>
      </trkpt>
      <trkpt lat="46.98159" lon="6.73782">
        <ele>999.39978741083</ele>
        <time>2021-09-11T08:58:04.050Z</time>
      </trkpt>
      <trkpt lat="46.98145" lon="6.73772">
        <ele>999.1</ele>
        <time>2021-09-11T08:58:08.752Z</time>
      </trkpt>
      <trkpt lat="46.9814" lon="6.73768">
        <ele>999.1</ele>
        <time>2021-09-11T08:58:14.008Z</time>
      </trkpt>
      <trkpt lat="46.98141" lon="6.73769">
        <ele>999.1</ele>
        <time>2021-09-11T08:58:14.919Z</time>
      </trkpt>
      <trkpt lat="46.9814" lon="6.73768">
        <ele>999.1</ele>
        <time>2021-09-11T08:58:15.830Z</time>
      </trkpt>
      <trkpt lat="46.98134" lon="6.73763">
        <ele>999.00028194793</ele>
        <time>2021-09-11T08:58:18.039Z</time>
      </trkpt>
      <trkpt lat="46.98119" lon="6.73749">
        <ele>999.1</ele>
        <time>2021-09-11T08:58:35.334Z</time>
      </trkpt>
      <trkpt lat="46.98111" lon="6.73743">
        <ele>999.19942470908</ele>
        <time>2021-09-11T08:58:44.560Z</time>
      </trkpt>
      <trkpt lat="46.98107" lon="6.7374">
        <ele>999.1</ele>
        <time>2021-09-11T08:58:45.872Z</time>
      </trkpt>
      <trkpt lat="46.98104" lon="6.7374">
        <ele>999.49838007706</ele>
        <time>2021-09-11T08:58:56.449Z</time>
      </trkpt>
      <trkpt lat="46.981" lon="6.7374">
        <ele>999.7</ele>
        <time>2021-09-11T08:59:02.919Z</time>
      </trkpt>
      <trkpt lat="46.98098" lon="6.73742">
        <ele>999.7</ele>
        <time>2021-09-11T08:59:05.153Z</time>
      </trkpt>
      <trkpt lat="46.98092" lon="6.73735">
        <ele>1000.3989589637</ele>
        <time>2021-09-11T08:59:22.090Z</time>
      </trkpt>
      <trkpt lat="46.98084" lon="6.73727">
        <ele>1000.6</ele>
        <time>2021-09-11T08:59:33.123Z</time>
      </trkpt>
      <trkpt lat="46.98087" lon="6.73717">
        <ele>1000.9012735077</ele>
        <time>2021-09-11T08:59:44.042Z</time>
      </trkpt>
      <trkpt lat="46.98088" lon="6.73714">
        <ele>1001.1</ele>
        <time>2021-09-11T08:59:48.902Z</time>
      </trkpt>
      <trkpt lat="46.98087" lon="6.7371">
        <ele>1001.2</ele>
        <time>2021-09-11T08:59:52.818Z</time>
      </trkpt>
      <trkpt lat="46.98087" lon="6.73708">
        <ele>1001.2</ele>
        <time>2021-09-11T08:59:54.077Z</time>
      </trkpt>
      <trkpt lat="46.9807" lon="6.73698">
        <ele>1001.1</ele>
        <time>2021-09-11T09:00:09.672Z</time>
      </trkpt>
      <trkpt lat="46.98071" lon="6.73699">
        <ele>1001.1</ele>
        <time>2021-09-11T09:00:10.447Z</time>
      </trkpt>
      <trkpt lat="46.9807" lon="6.73698">
        <ele>1001.1</ele>
        <time>2021-09-11T09:00:11.221Z</time>
      </trkpt>
      <trkpt lat="46.9806" lon="6.73692">
        <ele>1001.0001326383</ele>
        <time>2021-09-11T09:00:14.922Z</time>
      </trkpt>
      <trkpt lat="46.98032" lon="6.73672">
        <ele>1000.9</ele>
        <time>2021-09-11T09:00:42.310Z</time>
      </trkpt>
      <trkpt lat="46.98029" lon="6.73668">
        <ele>1000.8</ele>
        <time>2021-09-11T09:00:43.460Z</time>
      </trkpt>
      <trkpt lat="46.98027" lon="6.73664">
        <ele>1000.8</ele>
        <time>2021-09-11T09:00:46.582Z</time>
      </trkpt>
      <trkpt lat="46.98026" lon="6.73661">
        <ele>1000.8</ele>
        <time>2021-09-11T09:00:48.683Z</time>
      </trkpt>
      <trkpt lat="46.98025" lon="6.73655">
        <ele>1000.6</ele>
        <time>2021-09-11T09:00:49.637Z</time>
      </trkpt>
      <trkpt lat="46.98024" lon="6.73645">
        <ele>999.89926995737</ele>
        <time>2021-09-11T09:00:51.093Z</time>
      </trkpt>
      <trkpt lat="46.98023" lon="6.7364">
        <ele>999.8</ele>
        <time>2021-09-11T09:00:52.067Z</time>
      </trkpt>
      <trkpt lat="46.98022" lon="6.73636">
        <ele>999.6</ele>
        <time>2021-09-11T09:00:52.680Z</time>
      </trkpt>
      <trkpt lat="46.9802" lon="6.73632">
        <ele>999.69980719169</ele>
        <time>2021-09-11T09:00:56.957Z</time>
      </trkpt>
      <trkpt lat="46.98017" lon="6.73627">
        <ele>999.6</ele>
        <time>2021-09-11T09:00:58.286Z</time>
      </trkpt>
      <trkpt lat="46.9799" lon="6.73588">
        <ele>1000</ele>
        <time>2021-09-11T09:01:37.001Z</time>
      </trkpt>
      <trkpt lat="46.97986" lon="6.73583">
        <ele>1000</ele>
        <time>2021-09-11T09:01:41.851Z</time>
      </trkpt>
      <trkpt lat="46.9798" lon="6.73576">
        <ele>999.90005216914</ele>
        <time>2021-09-11T09:01:44.350Z</time>
      </trkpt>
      <trkpt lat="46.97996" lon="6.73558">
        <ele>999.9</ele>
        <time>2021-09-11T09:02:02.958Z</time>
      </trkpt>
      <trkpt lat="46.98093" lon="6.73454">
        <ele>999.2</ele>
        <time>2021-09-11T09:03:44.751Z</time>
      </trkpt>
      <trkpt lat="46.98093" lon="6.73455">
        <ele>999.2</ele>
        <time>2021-09-11T09:03:45.222Z</time>
      </trkpt>
      <trkpt lat="46.98093" lon="6.73454">
        <ele>999.2</ele>
        <time>2021-09-11T09:03:45.693Z</time>
      </trkpt>
      <trkpt lat="46.98119" lon="6.73426">
        <ele>998.5</ele>
        <time>2021-09-11T09:03:55.160Z</time>
      </trkpt>
      <trkpt lat="46.98149" lon="6.73392">
        <ele>997.8</ele>
        <time>2021-09-11T09:04:06.717Z</time>
      </trkpt>
      <trkpt lat="46.98153" lon="6.73389">
        <ele>997.8</ele>
        <time>2021-09-11T09:04:10.863Z</time>
      </trkpt>
      <trkpt lat="46.9818" lon="6.73365">
        <ele>997.8</ele>
        <time>2021-09-11T09:04:39.995Z</time>
      </trkpt>
      <trkpt lat="46.98214" lon="6.73335">
        <ele>997.3</ele>
        <time>2021-09-11T09:04:53.000Z</time>
      </trkpt>
      <trkpt lat="46.98247" lon="6.73308">
        <ele>997.6</ele>
        <time>2021-09-11T09:05:30.602Z</time>
      </trkpt>
      <trkpt lat="46.98313" lon="6.73254">
        <ele>997.4</ele>
        <time>2021-09-11T09:06:37.619Z</time>
      </trkpt>
      <trkpt lat="46.98329" lon="6.7324">
        <ele>997.3</ele>
        <time>2021-09-11T09:06:53.504Z</time>
      </trkpt>
      <trkpt lat="46.98341" lon="6.73228">
        <ele>997.4</ele>
        <time>2021-09-11T09:07:07.808Z</time>
      </trkpt>
      <trkpt lat="46.98347" lon="6.73222">
        <ele>997.3</ele>
        <time>2021-09-11T09:07:10.153Z</time>
      </trkpt>
      <trkpt lat="46.9836" lon="6.73204">
        <ele>997.3</ele>
        <time>2021-09-11T09:07:26.652Z</time>
      </trkpt>
      <trkpt lat="46.98377" lon="6.7318">
        <ele>997</ele>
        <time>2021-09-11T09:07:34.375Z</time>
      </trkpt>
      <trkpt lat="46.98407" lon="6.73138">
        <ele>996.7</ele>
        <time>2021-09-11T09:08:08.831Z</time>
      </trkpt>
      <trkpt lat="46.98419" lon="6.73119">
        <ele>996.39934157274</ele>
        <time>2021-09-11T09:08:14.308Z</time>
      </trkpt>
      <trkpt lat="46.98423" lon="6.73116">
        <ele>996.19954581607</ele>
        <time>2021-09-11T09:08:15.353Z</time>
      </trkpt>
      <trkpt lat="46.98426" lon="6.73114">
        <ele>995.9</ele>
        <time>2021-09-11T09:08:16.049Z</time>
      </trkpt>
      <trkpt lat="46.98429" lon="6.73114">
        <ele>995.50131806061</ele>
        <time>2021-09-11T09:08:16.682Z</time>
      </trkpt>
      <trkpt lat="46.98432" lon="6.73113">
        <ele>995.2</ele>
        <time>2021-09-11T09:08:17.332Z</time>
      </trkpt>
      <trkpt lat="46.9844" lon="6.73117">
        <ele>994.79990757879</ele>
        <time>2021-09-11T09:08:19.248Z</time>
      </trkpt>
      <trkpt lat="46.98445" lon="6.73119">
        <ele>994.69910126999</ele>
        <time>2021-09-11T09:08:20.809Z</time>
      </trkpt>
      <trkpt lat="46.98449" lon="6.7312">
        <ele>994.6</ele>
        <time>2021-09-11T09:08:21.963Z</time>
      </trkpt>
      <trkpt lat="46.98452" lon="6.73119">
        <ele>994.6</ele>
        <time>2021-09-11T09:08:24.802Z</time>
      </trkpt>
      <trkpt lat="46.98455" lon="6.73117">
        <ele>994.6</ele>
        <time>2021-09-11T09:08:27.842Z</time>
      </trkpt>
      <trkpt lat="46.98459" lon="6.73113">
        <ele>994.8</ele>
        <time>2021-09-11T09:08:35.028Z</time>
      </trkpt>
      <trkpt lat="46.98462" lon="6.73111">
        <ele>994.8</ele>
        <time>2021-09-11T09:08:38.069Z</time>
      </trkpt>
      <trkpt lat="46.9847" lon="6.73103">
        <ele>994.90259264094</ele>
        <time>2021-09-11T09:08:47.963Z</time>
      </trkpt>
      <trkpt lat="46.98477" lon="6.73097">
        <ele>995.4</ele>
        <time>2021-09-11T09:09:02.095Z</time>
      </trkpt>
      <trkpt lat="46.98482" lon="6.73093">
        <ele>996.1</ele>
        <time>2021-09-11T09:09:19.684Z</time>
      </trkpt>
      <trkpt lat="46.98479" lon="6.7309">
        <ele>996.1</ele>
        <time>2021-09-11T09:09:23.035Z</time>
      </trkpt>
      <trkpt lat="46.98476" lon="6.73081">
        <ele>996.30032061515</ele>
        <time>2021-09-11T09:09:31.654Z</time>
      </trkpt>
      <trkpt lat="46.98474" lon="6.73076">
        <ele>996.4</ele>
        <time>2021-09-11T09:09:36.397Z</time>
      </trkpt>
      <trkpt lat="46.98473" lon="6.73075">
        <ele>996.4</ele>
        <time>2021-09-11T09:09:37.514Z</time>
      </trkpt>
      <trkpt lat="46.98471" lon="6.73072">
        <ele>996.5</ele>
        <time>2021-09-11T09:09:41.397Z</time>
      </trkpt>
      <trkpt lat="46.9846" lon="6.73052">
        <ele>996.50016163364</ele>
        <time>2021-09-11T09:09:57.567Z</time>
      </trkpt>
      <trkpt lat="46.9845" lon="6.73034">
        <ele>996.6</ele>
        <time>2021-09-11T09:10:13.073Z</time>
      </trkpt>
      <trkpt lat="46.98439" lon="6.73015">
        <ele>996.79990556381</ele>
        <time>2021-09-11T09:10:30.650Z</time>
      </trkpt>
      <trkpt lat="46.984" lon="6.72981">
        <ele>996.9</ele>
        <time>2021-09-11T09:11:13.377Z</time>
      </trkpt>
      <trkpt lat="46.98401" lon="6.72981">
        <ele>996.9</ele>
        <time>2021-09-11T09:11:14.002Z</time>
      </trkpt>
      <trkpt lat="46.984" lon="6.72981">
        <ele>996.9</ele>
        <time>2021-09-11T09:11:14.627Z</time>
      </trkpt>
      <trkpt lat="46.98383" lon="6.72966">
        <ele>997</ele>
        <time>2021-09-11T09:11:33.819Z</time>
      </trkpt>
      <trkpt lat="46.98339" lon="6.72927">
        <ele>996.7</ele>
        <time>2021-09-11T09:12:17.364Z</time>
      </trkpt>
      <trkpt lat="46.9831" lon="6.72901">
        <ele>996.5</ele>
        <time>2021-09-11T09:12:46.134Z</time>
      </trkpt>
      <trkpt lat="46.98258" lon="6.72856">
        <ele>996.49996379637</ele>
        <time>2021-09-11T09:13:41.845Z</time>
      </trkpt>
      <trkpt lat="46.98241" lon="6.7284">
        <ele>996.3</ele>
        <time>2021-09-11T09:13:48.704Z</time>
      </trkpt>
      <trkpt lat="46.98233" lon="6.7283">
        <ele>996.3</ele>
        <time>2021-09-11T09:13:58.404Z</time>
      </trkpt>
      <trkpt lat="46.98228" lon="6.72821">
        <ele>996.3</ele>
        <time>2021-09-11T09:14:05.709Z</time>
      </trkpt>
      <trkpt lat="46.98223" lon="6.72809">
        <ele>996.3</ele>
        <time>2021-09-11T09:14:14.559Z</time>
      </trkpt>
      <trkpt lat="46.98215" lon="6.7278">
        <ele>996.39975583831</ele>
        <time>2021-09-11T09:14:35.129Z</time>
      </trkpt>
      <trkpt lat="46.9821" lon="6.72763">
        <ele>996.2</ele>
        <time>2021-09-11T09:14:39.103Z</time>
      </trkpt>
      <trkpt lat="46.98207" lon="6.72752">
        <ele>996.2</ele>
        <time>2021-09-11T09:14:46.560Z</time>
      </trkpt>
      <trkpt lat="46.98207" lon="6.72752">
        <ele>996.2</ele>
        <time>2021-09-11T09:14:46.768Z</time>
      </trkpt>
      <trkpt lat="46.98207" lon="6.72752">
        <ele>996.2</ele>
        <time>2021-09-11T09:14:46.977Z</time>
      </trkpt>
      <trkpt lat="46.98205" lon="6.72745">
        <ele>996.1</ele>
        <time>2021-09-11T09:14:48.539Z</time>
      </trkpt>
      <trkpt lat="46.98166" lon="6.72637">
        <ele>996.7</ele>
        <time>2021-09-11T09:16:10.880Z</time>
      </trkpt>
      <trkpt lat="46.98138" lon="6.72551">
        <ele>996.70011903966</ele>
        <time>2021-09-11T09:17:10.859Z</time>
      </trkpt>
      <trkpt lat="46.98129" lon="6.72528">
        <ele>996.8</ele>
        <time>2021-09-11T09:17:28.437Z</time>
      </trkpt>
      <trkpt lat="46.98127" lon="6.72521">
        <ele>996.9</ele>
        <time>2021-09-11T09:17:34.240Z</time>
      </trkpt>
      <trkpt lat="46.98125" lon="6.72518">
        <ele>996.80009725962</ele>
        <time>2021-09-11T09:17:34.969Z</time>
      </trkpt>
      <trkpt lat="46.98094" lon="6.72473">
        <ele>996.8</ele>
        <time>2021-09-11T09:18:15.220Z</time>
      </trkpt>
      <trkpt lat="46.98086" lon="6.72459">
        <ele>996.90062495433</ele>
        <time>2021-09-11T09:18:27.633Z</time>
      </trkpt>
      <trkpt lat="46.98084" lon="6.72455">
        <ele>996.99982429885</ele>
        <time>2021-09-11T09:18:31.901Z</time>
      </trkpt>
      <trkpt lat="46.98085" lon="6.72451">
        <ele>996.9</ele>
        <time>2021-09-11T09:18:32.645Z</time>
      </trkpt>
      <trkpt lat="46.98087" lon="6.72448">
        <ele>996.9</ele>
        <time>2021-09-11T09:18:35.285Z</time>
      </trkpt>
      <trkpt lat="46.98092" lon="6.72442">
        <ele>997.1</ele>
        <time>2021-09-11T09:18:43.606Z</time>
      </trkpt>
      <trkpt lat="46.98105" lon="6.72427">
        <ele>997.6</ele>
        <time>2021-09-11T09:19:04.713Z</time>
      </trkpt>
      <trkpt lat="46.98112" lon="6.72418">
        <ele>997.69977241072</ele>
        <time>2021-09-11T09:19:14.238Z</time>
      </trkpt>
      <trkpt lat="46.98127" lon="6.72395">
        <ele>997.9</ele>
        <time>2021-09-11T09:19:36.114Z</time>
      </trkpt>
      <trkpt lat="46.9816" lon="6.72349">
        <ele>998.6</ele>
        <time>2021-09-11T09:20:25.013Z</time>
      </trkpt>
      <trkpt lat="46.98214" lon="6.72276">
        <ele>999.2</ele>
        <time>2021-09-11T09:21:38.267Z</time>
      </trkpt>
      <trkpt lat="46.98215" lon="6.72277">
        <ele>999.2</ele>
        <time>2021-09-11T09:21:38.906Z</time>
      </trkpt>
      <trkpt lat="46.98214" lon="6.72276">
        <ele>999.2</ele>
        <time>2021-09-11T09:21:39.546Z</time>
      </trkpt>
      <trkpt lat="46.98218" lon="6.72271">
        <ele>999.69857160725</ele>
        <time>2021-09-11T09:21:51.555Z</time>
      </trkpt>
      <trkpt lat="46.98318" lon="6.72134">
        <ele>1000.6000821388</ele>
        <time>2021-09-11T09:24:05.944Z</time>
      </trkpt>
      <trkpt lat="46.98363" lon="6.72071">
        <ele>1001.3003500688</ele>
        <time>2021-09-11T09:25:09.952Z</time>
      </trkpt>
      <trkpt lat="46.98403" lon="6.72018">
        <ele>1001.8999597943</ele>
        <time>2021-09-11T09:26:05.340Z</time>
      </trkpt>
      <trkpt lat="46.98517" lon="6.71864">
        <ele>1004.2</ele>
        <time>2021-09-11T09:28:50.859Z</time>
      </trkpt>
      <trkpt lat="46.98534" lon="6.7184">
        <ele>1004.4</ele>
        <time>2021-09-11T09:29:14.467Z</time>
      </trkpt>
      <trkpt lat="46.98539" lon="6.71831">
        <ele>1004.5</ele>
        <time>2021-09-11T09:29:22.727Z</time>
      </trkpt>
      <trkpt lat="46.9854" lon="6.71825">
        <ele>1004.5</ele>
        <time>2021-09-11T09:29:26.615Z</time>
      </trkpt>
      <trkpt lat="46.98541" lon="6.7182">
        <ele>1004.5</ele>
        <time>2021-09-11T09:29:29.894Z</time>
      </trkpt>
      <trkpt lat="46.98539" lon="6.718">
        <ele>1004.7</ele>
        <time>2021-09-11T09:29:44.565Z</time>
      </trkpt>
      <trkpt lat="46.9854" lon="6.71793">
        <ele>1004.7000201466</ele>
        <time>2021-09-11T09:29:49.066Z</time>
      </trkpt>
      <trkpt lat="46.98541" lon="6.71787">
        <ele>1004.8</ele>
        <time>2021-09-11T09:29:54.033Z</time>
      </trkpt>
      <trkpt lat="46.98543" lon="6.71782">
        <ele>1004.8</ele>
        <time>2021-09-11T09:29:57.681Z</time>
      </trkpt>
      <trkpt lat="46.98547" lon="6.71775">
        <ele>1004.8997073558</ele>
        <time>2021-09-11T09:30:04.416Z</time>
      </trkpt>
      <trkpt lat="46.98559" lon="6.71758">
        <ele>1005.0002055347</ele>
        <time>2021-09-11T09:30:20.711Z</time>
      </trkpt>
      <trkpt lat="46.98567" lon="6.71747">
        <ele>1005.0999514917</ele>
        <time>2021-09-11T09:30:31.750Z</time>
      </trkpt>
      <trkpt lat="46.98575" lon="6.71735">
        <ele>1005.2990786549</ele>
        <time>2021-09-11T09:30:44.312Z</time>
      </trkpt>
      <trkpt lat="46.98592" lon="6.71705">
        <ele>1005.5</ele>
        <time>2021-09-11T09:31:10.681Z</time>
      </trkpt>
      <trkpt lat="46.98602" lon="6.7169">
        <ele>1005.9</ele>
        <time>2021-09-11T09:31:28.425Z</time>
      </trkpt>
      <trkpt lat="46.9862" lon="6.71667">
        <ele>1006.3997749741</ele>
        <time>2021-09-11T09:31:55.680Z</time>
      </trkpt>
      <trkpt lat="46.98684" lon="6.71582">
        <ele>1008.5014775396</ele>
        <time>2021-09-11T09:33:38.212Z</time>
      </trkpt>
      <trkpt lat="46.98697" lon="6.71565">
        <ele>1009.7</ele>
        <time>2021-09-11T09:34:10.263Z</time>
      </trkpt>
      <trkpt lat="46.98697" lon="6.71566">
        <ele>1009.7</ele>
        <time>2021-09-11T09:34:10.921Z</time>
      </trkpt>
      <trkpt lat="46.98697" lon="6.71565">
        <ele>1009.7</ele>
        <time>2021-09-11T09:34:11.578Z</time>
      </trkpt>
      <trkpt lat="46.98739" lon="6.71509">
        <ele>1011</ele>
        <time>2021-09-11T09:35:17.859Z</time>
      </trkpt>
      <trkpt lat="46.98752" lon="6.71494">
        <ele>1011.9999414295</ele>
        <time>2021-09-11T09:35:46.508Z</time>
      </trkpt>
      <trkpt lat="46.98741" lon="6.71474">
        <ele>1012</ele>
        <time>2021-09-11T09:36:02.677Z</time>
      </trkpt>
      <trkpt lat="46.9874" lon="6.71473">
        <ele>1012</ele>
        <time>2021-09-11T09:36:03.794Z</time>
      </trkpt>
      <trkpt lat="46.98735" lon="6.71461">
        <ele>1012.1</ele>
        <time>2021-09-11T09:36:13.578Z</time>
      </trkpt>
      <trkpt lat="46.98741" lon="6.71442">
        <ele>1012.9004607529</ele>
        <time>2021-09-11T09:36:37.568Z</time>
      </trkpt>
      <trkpt lat="46.98748" lon="6.7143">
        <ele>1014.2017696696</ele>
        <time>2021-09-11T09:37:09.986Z</time>
      </trkpt>
      <trkpt lat="46.98752" lon="6.71425">
        <ele>1014.8</ele>
        <time>2021-09-11T09:37:24.558Z</time>
      </trkpt>
      <trkpt lat="46.98755" lon="6.71421">
        <ele>1015.3945499981</ele>
        <time>2021-09-11T09:37:38.989Z</time>
      </trkpt>
      <trkpt lat="46.98764" lon="6.71414">
        <ele>1016.3011078147</ele>
        <time>2021-09-11T09:38:01.062Z</time>
      </trkpt>
      <trkpt lat="46.98772" lon="6.71407">
        <ele>1016.8</ele>
        <time>2021-09-11T09:38:16.450Z</time>
      </trkpt>
      <trkpt lat="46.98776" lon="6.71403">
        <ele>1017.1033090738</ele>
        <time>2021-09-11T09:38:24.966Z</time>
      </trkpt>
      <trkpt lat="46.98778" lon="6.71399">
        <ele>1017.3</ele>
        <time>2021-09-11T09:38:30.731Z</time>
      </trkpt>
      <trkpt lat="46.9878" lon="6.71395">
        <ele>1017.5</ele>
        <time>2021-09-11T09:38:36.536Z</time>
      </trkpt>
      <trkpt lat="46.98782" lon="6.71389">
        <ele>1017.9</ele>
        <time>2021-09-11T09:38:46.304Z</time>
      </trkpt>
      <trkpt lat="46.98787" lon="6.7137">
        <ele>1018.8</ele>
        <time>2021-09-11T09:39:11.119Z</time>
      </trkpt>
      <trkpt lat="46.98796" lon="6.71334">
        <ele>1021.1</ele>
        <time>2021-09-11T09:40:07.269Z</time>
      </trkpt>
      <trkpt lat="46.98826" lon="6.71209">
        <ele>1031.8008431572</ele>
        <time>2021-09-11T09:44:31.462Z</time>
      </trkpt>
      <trkpt lat="46.98828" lon="6.71195">
        <ele>1032.9037604807</ele>
        <time>2021-09-11T09:44:58.277Z</time>
      </trkpt>
      <trkpt lat="46.98828" lon="6.71184">
        <ele>1033.7006590256</ele>
        <time>2021-09-11T09:45:17.438Z</time>
      </trkpt>
      <trkpt lat="46.98828" lon="6.71173">
        <ele>1034.5</ele>
        <time>2021-09-11T09:45:36.663Z</time>
      </trkpt>
      <trkpt lat="46.98828" lon="6.71163">
        <ele>1035.0985557368</ele>
        <time>2021-09-11T09:45:51.284Z</time>
      </trkpt>
      <trkpt lat="46.98825" lon="6.71148">
        <ele>1035.9014813158</ele>
        <time>2021-09-11T09:46:11.903Z</time>
      </trkpt>
      <trkpt lat="46.98824" lon="6.71141">
        <ele>1036.2963268778</ele>
        <time>2021-09-11T09:46:21.774Z</time>
      </trkpt>
      <trkpt lat="46.98821" lon="6.71134">
        <ele>1036.7</ele>
        <time>2021-09-11T09:46:32.370Z</time>
      </trkpt>
      <trkpt lat="46.98818" lon="6.71124">
        <ele>1037.396353011</ele>
        <time>2021-09-11T09:46:49.175Z</time>
      </trkpt>
      <trkpt lat="46.9881" lon="6.71108">
        <ele>1038.7994184642</ele>
        <time>2021-09-11T09:47:22.850Z</time>
      </trkpt>
      <trkpt lat="46.98794" lon="6.71082">
        <ele>1041.6031046991</ele>
        <time>2021-09-11T09:48:31.839Z</time>
      </trkpt>
      <trkpt lat="46.98782" lon="6.71061">
        <ele>1043.9029303521</ele>
        <time>2021-09-11T09:49:29.675Z</time>
      </trkpt>
      <trkpt lat="46.98775" lon="6.71045">
        <ele>1045.401398272</ele>
        <time>2021-09-11T09:50:06.346Z</time>
      </trkpt>
      <trkpt lat="46.98771" lon="6.71038">
        <ele>1045.9</ele>
        <time>2021-09-11T09:50:18.858Z</time>
      </trkpt>
      <trkpt lat="46.98772" lon="6.71038">
        <ele>1045.9</ele>
        <time>2021-09-11T09:50:19.707Z</time>
      </trkpt>
      <trkpt lat="46.98771" lon="6.71038">
        <ele>1045.9</ele>
        <time>2021-09-11T09:50:20.557Z</time>
      </trkpt>
      <trkpt lat="46.9877" lon="6.71033">
        <ele>1046.3972485016</ele>
        <time>2021-09-11T09:50:33.205Z</time>
      </trkpt>
      <trkpt lat="46.98765" lon="6.71022">
        <ele>1047.2992734551</ele>
        <time>2021-09-11T09:50:54.846Z</time>
      </trkpt>
      <trkpt lat="46.98759" lon="6.71001">
        <ele>1048.8</ele>
        <time>2021-09-11T09:51:30.923Z</time>
      </trkpt>
      <trkpt lat="46.98725" lon="6.70894">
        <ele>1056.8</ele>
        <time>2021-09-11T09:54:42.898Z</time>
      </trkpt>
      <trkpt lat="46.98704" lon="6.70818">
        <ele>1061.4</ele>
        <time>2021-09-11T09:56:37.297Z</time>
      </trkpt>
      <trkpt lat="46.9869" lon="6.70768">
        <ele>1065</ele>
        <time>2021-09-11T09:58:03.767Z</time>
      </trkpt>
      <trkpt lat="46.98687" lon="6.70754">
        <ele>1066.1</ele>
        <time>2021-09-11T09:58:30.344Z</time>
      </trkpt>
      <trkpt lat="46.98685" lon="6.70745">
        <ele>1066.8039598803</ele>
        <time>2021-09-11T09:58:47.329Z</time>
      </trkpt>
      <trkpt lat="46.98685" lon="6.70736">
        <ele>1067.5</ele>
        <time>2021-09-11T09:59:04.265Z</time>
      </trkpt>
      <trkpt lat="46.98685" lon="6.70729">
        <ele>1068</ele>
        <time>2021-09-11T09:59:16.273Z</time>
      </trkpt>
      <trkpt lat="46.98685" lon="6.70721">
        <ele>1068.6995284723</ele>
        <time>2021-09-11T09:59:34.323Z</time>
      </trkpt>
      <trkpt lat="46.98687" lon="6.70705">
        <ele>1070.0054416919</ele>
        <time>2021-09-11T10:00:06.490Z</time>
      </trkpt>
      <trkpt lat="46.98688" lon="6.70695">
        <ele>1070.8</ele>
        <time>2021-09-11T10:00:25.917Z</time>
      </trkpt>
      <trkpt lat="46.98717" lon="6.70563">
        <ele>1073.5</ele>
        <time>2021-09-11T10:02:24.087Z</time>
      </trkpt>
      <trkpt lat="46.98717" lon="6.70563">
        <ele>1073.5</ele>
        <time>2021-09-11T10:02:24.372Z</time>
      </trkpt>
      <trkpt lat="46.98717" lon="6.70563">
        <ele>1073.5</ele>
        <time>2021-09-11T10:02:24.657Z</time>
      </trkpt>
      <trkpt lat="46.98719" lon="6.70553">
        <ele>1076.2</ele>
        <time>2021-09-11T10:02:49.954Z</time>
      </trkpt>
      <trkpt lat="46.9872" lon="6.70542">
        <ele>1075.8</ele>
        <time>2021-09-11T10:02:51.590Z</time>
      </trkpt>
      <trkpt lat="46.98721" lon="6.70535">
        <ele>1075.5</ele>
        <time>2021-09-11T10:02:52.572Z</time>
      </trkpt>
      <trkpt lat="46.98721" lon="6.70527">
        <ele>1075</ele>
        <time>2021-09-11T10:02:53.724Z</time>
      </trkpt>
      <trkpt lat="46.98721" lon="6.70433">
        <ele>1069.8994097338</ele>
        <time>2021-09-11T10:03:07.262Z</time>
      </trkpt>
      <trkpt lat="46.98721" lon="6.70418">
        <ele>1068.9992845125</ele>
        <time>2021-09-11T10:03:09.422Z</time>
      </trkpt>
      <trkpt lat="46.98722" lon="6.7041">
        <ele>1068.7</ele>
        <time>2021-09-11T10:03:10.610Z</time>
      </trkpt>
      <trkpt lat="46.98724" lon="6.704">
        <ele>1068.0998525325</ele>
        <time>2021-09-11T10:03:12.111Z</time>
      </trkpt>
      <trkpt lat="46.98726" lon="6.70394">
        <ele>1067.8</ele>
        <time>2021-09-11T10:03:12.998Z</time>
      </trkpt>
      <trkpt lat="46.98732" lon="6.70385">
        <ele>1067.1</ele>
        <time>2021-09-11T10:03:14.810Z</time>
      </trkpt>
      <trkpt lat="46.98742" lon="6.70368">
        <ele>1065.7992834997</ele>
        <time>2021-09-11T10:03:18.043Z</time>
      </trkpt>
      <trkpt lat="46.98746" lon="6.7036">
        <ele>1065.5</ele>
        <time>2021-09-11T10:03:19.620Z</time>
      </trkpt>
      <trkpt lat="46.98748" lon="6.70353">
        <ele>1065.3</ele>
        <time>2021-09-11T10:03:20.891Z</time>
      </trkpt>
      <trkpt lat="46.98749" lon="6.70347">
        <ele>1065.2</ele>
        <time>2021-09-11T10:03:22.099Z</time>
      </trkpt>
      <trkpt lat="46.98749" lon="6.7034">
        <ele>1065.1</ele>
        <time>2021-09-11T10:03:23.513Z</time>
      </trkpt>
      <trkpt lat="46.98749" lon="6.70334">
        <ele>1065.1</ele>
        <time>2021-09-11T10:03:27.289Z</time>
      </trkpt>
      <trkpt lat="46.98747" lon="6.70326">
        <ele>1065</ele>
        <time>2021-09-11T10:03:29.087Z</time>
      </trkpt>
      <trkpt lat="46.98745" lon="6.70317">
        <ele>1065</ele>
        <time>2021-09-11T10:03:35.044Z</time>
      </trkpt>
      <trkpt lat="46.98741" lon="6.70306">
        <ele>1065.0000637118</ele>
        <time>2021-09-11T10:03:42.890Z</time>
      </trkpt>
      <trkpt lat="46.98738" lon="6.70297">
        <ele>1065.2</ele>
        <time>2021-09-11T10:03:51.502Z</time>
      </trkpt>
      <trkpt lat="46.98735" lon="6.70292">
        <ele>1065.10024524</ele>
        <time>2021-09-11T10:03:52.831Z</time>
      </trkpt>
      <trkpt lat="46.98727" lon="6.70279">
        <ele>1065.1997538474</ele>
        <time>2021-09-11T10:04:04.760Z</time>
      </trkpt>
      <trkpt lat="46.98711" lon="6.70248">
        <ele>1064.7</ele>
        <time>2021-09-11T10:04:12.805Z</time>
      </trkpt>
      <trkpt lat="46.98683" lon="6.70187">
        <ele>1064.0999112245</ele>
        <time>2021-09-11T10:04:29.377Z</time>
      </trkpt>
      <trkpt lat="46.9866" lon="6.70138">
        <ele>1064</ele>
        <time>2021-09-11T10:05:05.449Z</time>
      </trkpt>
      <trkpt lat="46.9864" lon="6.70094">
        <ele>1063.6</ele>
        <time>2021-09-11T10:05:17.503Z</time>
      </trkpt>
      <trkpt lat="46.98611" lon="6.70035">
        <ele>1063.6999450003</ele>
        <time>2021-09-11T10:06:04.131Z</time>
      </trkpt>
      <trkpt lat="46.98601" lon="6.70008">
        <ele>1063.4</ele>
        <time>2021-09-11T10:06:10.852Z</time>
      </trkpt>
      <trkpt lat="46.98598" lon="6.69999">
        <ele>1062.6974380801</ele>
        <time>2021-09-11T10:06:12.294Z</time>
      </trkpt>
      <trkpt lat="46.98597" lon="6.69991">
        <ele>1062.2966874665</ele>
        <time>2021-09-11T10:06:13.466Z</time>
      </trkpt>
      <trkpt lat="46.98596" lon="6.69986">
        <ele>1062.0032918076</ele>
        <time>2021-09-11T10:06:14.216Z</time>
      </trkpt>
      <trkpt lat="46.98592" lon="6.69931">
        <ele>1060.9</ele>
        <time>2021-09-11T10:06:24.404Z</time>
      </trkpt>
      <trkpt lat="46.98587" lon="6.69869">
        <ele>1060.8</ele>
        <time>2021-09-11T10:07:02.332Z</time>
      </trkpt>
      <trkpt lat="46.98587" lon="6.69869">
        <ele>1060.8</ele>
        <time>2021-09-11T10:07:02.620Z</time>
      </trkpt>
      <trkpt lat="46.98587" lon="6.69869">
        <ele>1060.8</ele>
        <time>2021-09-11T10:07:02.908Z</time>
      </trkpt>
      <trkpt lat="46.98586" lon="6.69863">
        <ele>1060.6</ele>
        <time>2021-09-11T10:07:03.862Z</time>
      </trkpt>
      <trkpt lat="46.98582" lon="6.69823">
        <ele>1060.6</ele>
        <time>2021-09-11T10:07:29.306Z</time>
      </trkpt>
      <trkpt lat="46.98582" lon="6.6981">
        <ele>1060.6</ele>
        <time>2021-09-11T10:07:37.488Z</time>
      </trkpt>
      <trkpt lat="46.98582" lon="6.69803">
        <ele>1060.6</ele>
        <time>2021-09-11T10:07:41.893Z</time>
      </trkpt>
      <trkpt lat="46.98582" lon="6.69794">
        <ele>1060.6</ele>
        <time>2021-09-11T10:07:47.558Z</time>
      </trkpt>
      <trkpt lat="46.98582" lon="6.69785">
        <ele>1060.5002017565</ele>
        <time>2021-09-11T10:07:49.480Z</time>
      </trkpt>
      <trkpt lat="46.98583" lon="6.69778">
        <ele>1060.6</ele>
        <time>2021-09-11T10:07:55.019Z</time>
      </trkpt>
      <trkpt lat="46.98592" lon="6.69731">
        <ele>1060.6</ele>
        <time>2021-09-11T10:08:25.742Z</time>
      </trkpt>
      <trkpt lat="46.98597" lon="6.69703">
        <ele>1060.499663535</ele>
        <time>2021-09-11T10:08:42.643Z</time>
      </trkpt>
      <trkpt lat="46.98598" lon="6.69692">
        <ele>1060.4</ele>
        <time>2021-09-11T10:08:45.106Z</time>
      </trkpt>
      <trkpt lat="46.98599" lon="6.69685">
        <ele>1060.3</ele>
        <time>2021-09-11T10:08:46.557Z</time>
      </trkpt>
      <trkpt lat="46.98598" lon="6.69677">
        <ele>1059.9</ele>
        <time>2021-09-11T10:08:47.729Z</time>
      </trkpt>
      <trkpt lat="46.98597" lon="6.6967">
        <ele>1059.9</ele>
        <time>2021-09-11T10:08:52.230Z</time>
      </trkpt>
      <trkpt lat="46.98591" lon="6.69644">
        <ele>1058.9</ele>
        <time>2021-09-11T10:08:56.256Z</time>
      </trkpt>
      <trkpt lat="46.98589" lon="6.69636">
        <ele>1058.4</ele>
        <time>2021-09-11T10:08:57.483Z</time>
      </trkpt>
      <trkpt lat="46.98588" lon="6.6963">
        <ele>1058.201368405</ele>
        <time>2021-09-11T10:08:58.439Z</time>
      </trkpt>
      <trkpt lat="46.98588" lon="6.69623">
        <ele>1057.7011604717</ele>
        <time>2021-09-11T10:08:59.448Z</time>
      </trkpt>
      <trkpt lat="46.98588" lon="6.69615">
        <ele>1057.3017433649</ele>
        <time>2021-09-11T10:09:00.600Z</time>
      </trkpt>
      <trkpt lat="46.98591" lon="6.6959">
        <ele>1055.9</ele>
        <time>2021-09-11T10:09:04.256Z</time>
      </trkpt>
      <trkpt lat="46.98593" lon="6.69572">
        <ele>1054.7987113605</ele>
        <time>2021-09-11T10:09:06.882Z</time>
      </trkpt>
      <trkpt lat="46.98593" lon="6.69559">
        <ele>1054.3985694426</ele>
        <time>2021-09-11T10:09:08.932Z</time>
      </trkpt>
      <trkpt lat="46.98593" lon="6.69551">
        <ele>1054</ele>
        <time>2021-09-11T10:09:10.084Z</time>
      </trkpt>
      <trkpt lat="46.98593" lon="6.69542">
        <ele>1053.5033395832</ele>
        <time>2021-09-11T10:09:11.381Z</time>
      </trkpt>
      <trkpt lat="46.98592" lon="6.69533">
        <ele>1053.1</ele>
        <time>2021-09-11T10:09:12.601Z</time>
      </trkpt>
      <trkpt lat="46.98588" lon="6.69506">
        <ele>1051.8001260541</ele>
        <time>2021-09-11T10:09:16.580Z</time>
      </trkpt>
      <trkpt lat="46.98581" lon="6.69464">
        <ele>1049.6005927076</ele>
        <time>2021-09-11T10:09:22.807Z</time>
      </trkpt>
      <trkpt lat="46.98588" lon="6.69462">
        <ele>1051.1978266629</ele>
        <time>2021-09-11T10:09:48.186Z</time>
      </trkpt>
      <trkpt lat="46.98621" lon="6.69452">
        <ele>1058.9</ele>
        <time>2021-09-11T10:11:48.101Z</time>
      </trkpt>
      <trkpt lat="46.98625" lon="6.6945">
        <ele>1060.0043547617</ele>
        <time>2021-09-11T10:12:03.141Z</time>
      </trkpt>
      <trkpt lat="46.98627" lon="6.69449">
        <ele>1060.7</ele>
        <time>2021-09-11T10:12:10.660Z</time>
      </trkpt>
      <trkpt lat="46.98631" lon="6.69444">
        <ele>1061.6</ele>
        <time>2021-09-11T10:12:29.367Z</time>
      </trkpt>
      <trkpt lat="46.98644" lon="6.69428">
        <ele>1065.4044371828</ele>
        <time>2021-09-11T10:13:29.772Z</time>
      </trkpt>
      <trkpt lat="46.98654" lon="6.69418">
        <ele>1068.9012223741</ele>
        <time>2021-09-11T10:14:12.849Z</time>
      </trkpt>
      <trkpt lat="46.98659" lon="6.69414">
        <ele>1070.6</ele>
        <time>2021-09-11T10:14:33.119Z</time>
      </trkpt>
      <trkpt lat="46.98663" lon="6.69412">
        <ele>1071.9</ele>
        <time>2021-09-11T10:14:48.158Z</time>
      </trkpt>
      <trkpt lat="46.98671" lon="6.69408">
        <ele>1074.8</ele>
        <time>2021-09-11T10:15:18.237Z</time>
      </trkpt>
      <trkpt lat="46.98678" lon="6.69408">
        <ele>1077.4137090719</ele>
        <time>2021-09-11T10:15:43.147Z</time>
      </trkpt>
      <trkpt lat="46.9868" lon="6.6941">
        <ele>1078.5</ele>
        <time>2021-09-11T10:15:51.762Z</time>
      </trkpt>
      <trkpt lat="46.98688" lon="6.69418">
        <ele>1081.2</ele>
        <time>2021-09-11T10:16:26.224Z</time>
      </trkpt>
      <trkpt lat="46.98693" lon="6.69423">
        <ele>1083.2</ele>
        <time>2021-09-11T10:16:47.762Z</time>
      </trkpt>
      <trkpt lat="46.98697" lon="6.69427">
        <ele>1085</ele>
        <time>2021-09-11T10:17:04.993Z</time>
      </trkpt>
      <trkpt lat="46.98701" lon="6.6943">
        <ele>1086.7</ele>
        <time>2021-09-11T10:17:20.982Z</time>
      </trkpt>
      <trkpt lat="46.98705" lon="6.69435">
        <ele>1088.5</ele>
        <time>2021-09-11T10:17:39.689Z</time>
      </trkpt>
      <trkpt lat="46.98708" lon="6.6944">
        <ele>1089.884870377</ele>
        <time>2021-09-11T10:17:55.853Z</time>
      </trkpt>
      <trkpt lat="46.98711" lon="6.69445">
        <ele>1091.1923802602</ele>
        <time>2021-09-11T10:18:12.018Z</time>
      </trkpt>
      <trkpt lat="46.98718" lon="6.69456">
        <ele>1094.5015530173</ele>
        <time>2021-09-11T10:18:48.535Z</time>
      </trkpt>
      <trkpt lat="46.98722" lon="6.69463">
        <ele>1096.5</ele>
        <time>2021-09-11T10:19:10.702Z</time>
      </trkpt>
      <trkpt lat="46.98726" lon="6.69468">
        <ele>1098</ele>
        <time>2021-09-11T10:19:29.409Z</time>
      </trkpt>
      <trkpt lat="46.98731" lon="6.6947">
        <ele>1099.9</ele>
        <time>2021-09-11T10:19:47.852Z</time>
      </trkpt>
      <trkpt lat="46.98733" lon="6.69472">
        <ele>1100.8</ele>
        <time>2021-09-11T10:19:56.467Z</time>
      </trkpt>
      <trkpt lat="46.98733" lon="6.69473">
        <ele>1100.8</ele>
        <time>2021-09-11T10:19:56.938Z</time>
      </trkpt>
      <trkpt lat="46.98733" lon="6.69472">
        <ele>1100.8</ele>
        <time>2021-09-11T10:19:57.408Z</time>
      </trkpt>
      <trkpt lat="46.98731" lon="6.6947">
        <ele>1099.9</ele>
        <time>2021-09-11T10:19:57.919Z</time>
      </trkpt>
      <trkpt lat="46.98736" lon="6.69475">
        <ele>1101.8</ele>
        <time>2021-09-11T10:20:19.458Z</time>
      </trkpt>
      <trkpt lat="46.98743" lon="6.69482">
        <ele>1104.985946368</ele>
        <time>2021-09-11T10:20:49.612Z</time>
      </trkpt>
      <trkpt lat="46.98755" lon="6.69496">
        <ele>1110.1</ele>
        <time>2021-09-11T10:21:44.187Z</time>
      </trkpt>
      <trkpt lat="46.98764" lon="6.69507">
        <ele>1114.1</ele>
        <time>2021-09-11T10:22:25.886Z</time>
      </trkpt>
      <trkpt lat="46.98774" lon="6.69518">
        <ele>1117.9910518465</ele>
        <time>2021-09-11T10:23:10.376Z</time>
      </trkpt>
      <trkpt lat="46.98785" lon="6.69536">
        <ele>1123.3</ele>
        <time>2021-09-11T10:24:09.040Z</time>
      </trkpt>
      <trkpt lat="46.98793" lon="6.69545">
        <ele>1126.3</ele>
        <time>2021-09-11T10:24:44.925Z</time>
      </trkpt>
      <trkpt lat="46.98795" lon="6.69523">
        <ele>1130.4813022099</ele>
        <time>2021-09-11T10:25:38.802Z</time>
      </trkpt>
      <trkpt lat="46.98797" lon="6.69497">
        <ele>1135.7075493935</ele>
        <time>2021-09-11T10:26:42.316Z</time>
      </trkpt>
      <trkpt lat="46.98801" lon="6.69472">
        <ele>1141</ele>
        <time>2021-09-11T10:27:44.650Z</time>
      </trkpt>
      <trkpt lat="46.98804" lon="6.69429">
        <ele>1150.6</ele>
        <time>2021-09-11T10:29:29.576Z</time>
      </trkpt>
      <trkpt lat="46.98805" lon="6.69407">
        <ele>1154.3999328149</ele>
        <time>2021-09-11T10:30:23.099Z</time>
      </trkpt>
      <trkpt lat="46.9881" lon="6.69416">
        <ele>1154.3</ele>
        <time>2021-09-11T10:30:25.693Z</time>
      </trkpt>
      <trkpt lat="46.98818" lon="6.69444">
        <ele>1155.1</ele>
        <time>2021-09-11T10:30:55.261Z</time>
      </trkpt>
      <trkpt lat="46.98823" lon="6.69462">
        <ele>1155.9</ele>
        <time>2021-09-11T10:31:18.203Z</time>
      </trkpt>
      <trkpt lat="46.98832" lon="6.69496">
        <ele>1158.3978135239</ele>
        <time>2021-09-11T10:32:18.125Z</time>
      </trkpt>
      <trkpt lat="46.98844" lon="6.69543">
        <ele>1161.4</ele>
        <time>2021-09-11T10:33:31.465Z</time>
      </trkpt>
      <trkpt lat="46.98847" lon="6.6955">
        <ele>1161.9</ele>
        <time>2021-09-11T10:33:43.649Z</time>
      </trkpt>
      <trkpt lat="46.9885" lon="6.69554">
        <ele>1162.3979014976</ele>
        <time>2021-09-11T10:33:56.154Z</time>
      </trkpt>
      <trkpt lat="46.98855" lon="6.6956">
        <ele>1162.7002631502</ele>
        <time>2021-09-11T10:34:06.364Z</time>
      </trkpt>
      <trkpt lat="46.98858" lon="6.69562">
        <ele>1163.0010360909</ele>
        <time>2021-09-11T10:34:13.650Z</time>
      </trkpt>
      <trkpt lat="46.9886" lon="6.69562">
        <ele>1163.1</ele>
        <time>2021-09-11T10:34:16.866Z</time>
      </trkpt>
      <trkpt lat="46.98864" lon="6.69562">
        <ele>1163.399519</ele>
        <time>2021-09-11T10:34:24.575Z</time>
      </trkpt>
      <trkpt lat="46.98876" lon="6.6956">
        <ele>1164.5026378228</ele>
        <time>2021-09-11T10:34:51.296Z</time>
      </trkpt>
      <trkpt lat="46.98882" lon="6.69559">
        <ele>1164.9017775276</ele>
        <time>2021-09-11T10:35:02.186Z</time>
      </trkpt>
      <trkpt lat="46.98887" lon="6.69559">
        <ele>1165.2987415072</ele>
        <time>2021-09-11T10:35:12.176Z</time>
      </trkpt>
      <trkpt lat="46.98893" lon="6.6956">
        <ele>1165.9038424528</ele>
        <time>2021-09-11T10:35:26.693Z</time>
      </trkpt>
      <trkpt lat="46.98898" lon="6.69562">
        <ele>1166.4</ele>
        <time>2021-09-11T10:35:38.631Z</time>
      </trkpt>
      <trkpt lat="46.98902" lon="6.69565">
        <ele>1166.8</ele>
        <time>2021-09-11T10:35:48.369Z</time>
      </trkpt>
      <trkpt lat="46.98907" lon="6.69569">
        <ele>1167.3010831485</ele>
        <time>2021-09-11T10:36:00.601Z</time>
      </trkpt>
      <trkpt lat="46.98911" lon="6.69574">
        <ele>1167.5</ele>
        <time>2021-09-11T10:36:08.024Z</time>
      </trkpt>
      <trkpt lat="46.98914" lon="6.69578">
        <ele>1167.7988897556</ele>
        <time>2021-09-11T10:36:15.768Z</time>
      </trkpt>
      <trkpt lat="46.98923" lon="6.69591">
        <ele>1167.9997308474</ele>
        <time>2021-09-11T10:36:29.412Z</time>
      </trkpt>
      <trkpt lat="46.98935" lon="6.69611">
        <ele>1168.3003839656</ele>
        <time>2021-09-11T10:36:49.169Z</time>
      </trkpt>
      <trkpt lat="46.98946" lon="6.69631">
        <ele>1168.8983862925</ele>
        <time>2021-09-11T10:37:12.689Z</time>
      </trkpt>
      <trkpt lat="46.98959" lon="6.69659">
        <ele>1170.8004137928</ele>
        <time>2021-09-11T10:37:59.975Z</time>
      </trkpt>
      <trkpt lat="46.98972" lon="6.69683">
        <ele>1172.3</ele>
        <time>2021-09-11T10:38:39.299Z</time>
      </trkpt>
      <trkpt lat="46.98983" lon="6.69703">
        <ele>1173.7003287624</ele>
        <time>2021-09-11T10:39:14.459Z</time>
      </trkpt>
      <trkpt lat="46.98993" lon="6.69723">
        <ele>1175.5048018685</ele>
        <time>2021-09-11T10:39:57.866Z</time>
      </trkpt>
      <trkpt lat="46.98997" lon="6.69731">
        <ele>1176.1</ele>
        <time>2021-09-11T10:40:12.396Z</time>
      </trkpt>
      <trkpt lat="46.98995" lon="6.69727">
        <ele>1175.8</ele>
        <time>2021-09-11T10:40:13.110Z</time>
      </trkpt>
      <trkpt lat="46.98996" lon="6.69728">
        <ele>1175.8</ele>
        <time>2021-09-11T10:40:13.879Z</time>
      </trkpt>
      <trkpt lat="46.98995" lon="6.69727">
        <ele>1175.8</ele>
        <time>2021-09-11T10:40:14.647Z</time>
      </trkpt>
      <trkpt lat="46.98997" lon="6.69731">
        <ele>1176.1</ele>
        <time>2021-09-11T10:40:21.957Z</time>
      </trkpt>
      <trkpt lat="46.98999" lon="6.69735">
        <ele>1176.5014639865</ele>
        <time>2021-09-11T10:40:31.878Z</time>
      </trkpt>
      <trkpt lat="46.99001" lon="6.69737">
        <ele>1176.6</ele>
        <time>2021-09-11T10:40:35.440Z</time>
      </trkpt>
      <trkpt lat="46.99007" lon="6.69747">
        <ele>1177.3</ele>
        <time>2021-09-11T10:40:53.252Z</time>
      </trkpt>
      <trkpt lat="46.9901" lon="6.69751">
        <ele>1177.8</ele>
        <time>2021-09-11T10:41:05.839Z</time>
      </trkpt>
      <trkpt lat="46.99015" lon="6.69756">
        <ele>1178.4952368931</ele>
        <time>2021-09-11T10:41:22.820Z</time>
      </trkpt>
      <trkpt lat="46.99022" lon="6.69764">
        <ele>1179.2</ele>
        <time>2021-09-11T10:41:40.556Z</time>
      </trkpt>
      <trkpt lat="46.99032" lon="6.69772">
        <ele>1180.1</ele>
        <time>2021-09-11T10:42:03.245Z</time>
      </trkpt>
      <trkpt lat="46.99051" lon="6.69788">
        <ele>1181.3</ele>
        <time>2021-09-11T10:42:39.732Z</time>
      </trkpt>
      <trkpt lat="46.9907" lon="6.69805">
        <ele>1182.3028679261</ele>
        <time>2021-09-11T10:43:14.513Z</time>
      </trkpt>
      <trkpt lat="46.99087" lon="6.69817">
        <ele>1183.4</ele>
        <time>2021-09-11T10:43:46.667Z</time>
      </trkpt>
      <trkpt lat="46.99091" lon="6.6982">
        <ele>1183.6980180701</ele>
        <time>2021-09-11T10:43:54.784Z</time>
      </trkpt>
      <trkpt lat="46.99122" lon="6.69842">
        <ele>1185.9998595923</ele>
        <time>2021-09-11T10:44:57.233Z</time>
      </trkpt>
      <trkpt lat="46.99173" lon="6.69879">
        <ele>1189.6008577063</ele>
        <time>2021-09-11T10:46:37.779Z</time>
      </trkpt>
      <trkpt lat="46.99191" lon="6.69892">
        <ele>1190.9007268001</ele>
        <time>2021-09-11T10:47:13.620Z</time>
      </trkpt>
      <trkpt lat="46.99204" lon="6.69903">
        <ele>1191.6</ele>
        <time>2021-09-11T10:47:37.305Z</time>
      </trkpt>
      <trkpt lat="46.99211" lon="6.69909">
        <ele>1192.0006170418</ele>
        <time>2021-09-11T10:47:50.335Z</time>
      </trkpt>
      <trkpt lat="46.99217" lon="6.69914">
        <ele>1192.0996629052</ele>
        <time>2021-09-11T10:47:57.666Z</time>
      </trkpt>
      <trkpt lat="46.99227" lon="6.69923">
        <ele>1192.3</ele>
        <time>2021-09-11T10:48:10.498Z</time>
      </trkpt>
      <trkpt lat="46.99238" lon="6.69934">
        <ele>1192.3</ele>
        <time>2021-09-11T10:48:22.783Z</time>
      </trkpt>
      <trkpt lat="46.99239" lon="6.69935">
        <ele>1192.3</ele>
        <time>2021-09-11T10:48:23.900Z</time>
      </trkpt>
      <trkpt lat="46.99249" lon="6.69947">
        <ele>1192.4</ele>
        <time>2021-09-11T10:48:36.731Z</time>
      </trkpt>
      <trkpt lat="46.9926" lon="6.69959">
        <ele>1192.4</ele>
        <time>2021-09-11T10:48:49.381Z</time>
      </trkpt>
      <trkpt lat="46.99272" lon="6.69976">
        <ele>1192.700008024</ele>
        <time>2021-09-11T10:49:07.812Z</time>
      </trkpt>
      <trkpt lat="46.99283" lon="6.69993">
        <ele>1193</ele>
        <time>2021-09-11T10:49:25.619Z</time>
      </trkpt>
      <trkpt lat="46.99285" lon="6.69995">
        <ele>1193.0999276643</ele>
        <time>2021-09-11T10:49:29.210Z</time>
      </trkpt>
      <trkpt lat="46.99292" lon="6.70003">
        <ele>1193.1</ele>
        <time>2021-09-11T10:49:37.399Z</time>
      </trkpt>
      <trkpt lat="46.99298" lon="6.70011">
        <ele>1193.2009558289</ele>
        <time>2021-09-11T10:49:45.845Z</time>
      </trkpt>
      <trkpt lat="46.99303" lon="6.70016">
        <ele>1193.4</ele>
        <time>2021-09-11T10:49:53.836Z</time>
      </trkpt>
      <trkpt lat="46.99309" lon="6.70024">
        <ele>1193.4998531481</ele>
        <time>2021-09-11T10:50:02.269Z</time>
      </trkpt>
      <trkpt lat="46.99336" lon="6.70061">
        <ele>1194.2</ele>
        <time>2021-09-11T10:50:43.526Z</time>
      </trkpt>
      <trkpt lat="46.99342" lon="6.70069">
        <ele>1194.3</ele>
        <time>2021-09-11T10:50:51.961Z</time>
      </trkpt>
      <trkpt lat="46.99363" lon="6.70097">
        <ele>1194.2</ele>
        <time>2021-09-11T10:51:16.808Z</time>
      </trkpt>
      <trkpt lat="46.99378" lon="6.70121">
        <ele>1194</ele>
        <time>2021-09-11T10:51:24.436Z</time>
      </trkpt>
      <trkpt lat="46.99393" lon="6.70143">
        <ele>1194.1999199216</ele>
        <time>2021-09-11T10:51:45.859Z</time>
      </trkpt>
      <trkpt lat="46.99401" lon="6.70156">
        <ele>1194</ele>
        <time>2021-09-11T10:51:49.576Z</time>
      </trkpt>
      <trkpt lat="46.99406" lon="6.70166">
        <ele>1194</ele>
        <time>2021-09-11T10:51:57.378Z</time>
      </trkpt>
      <trkpt lat="46.99423" lon="6.70199">
        <ele>1194.5009212494</ele>
        <time>2021-09-11T10:52:28.457Z</time>
      </trkpt>
      <trkpt lat="46.99425" lon="6.70204">
        <ele>1194.59930618</ele>
        <time>2021-09-11T10:52:33.181Z</time>
      </trkpt>
      <trkpt lat="46.99434" lon="6.70219">
        <ele>1194.7</ele>
        <time>2021-09-11T10:52:46.665Z</time>
      </trkpt>
      <trkpt lat="46.99441" lon="6.7023">
        <ele>1194.6998997877</ele>
        <time>2021-09-11T10:52:56.131Z</time>
      </trkpt>
      <trkpt lat="46.99445" lon="6.70239">
        <ele>1194.6</ele>
        <time>2021-09-11T10:52:58.500Z</time>
      </trkpt>
      <trkpt lat="46.99448" lon="6.70245">
        <ele>1194.9</ele>
        <time>2021-09-11T10:53:07.207Z</time>
      </trkpt>
      <trkpt lat="46.99449" lon="6.70248">
        <ele>1194.9987105062</ele>
        <time>2021-09-11T10:53:10.691Z</time>
      </trkpt>
      <trkpt lat="46.9945" lon="6.70251">
        <ele>1195</ele>
        <time>2021-09-11T10:53:12.803Z</time>
      </trkpt>
      <trkpt lat="46.99456" lon="6.70264">
        <ele>1195.1</ele>
        <time>2021-09-11T10:53:23.605Z</time>
      </trkpt>
      <trkpt lat="46.99459" lon="6.70272">
        <ele>1195.2</ele>
        <time>2021-09-11T10:53:30.340Z</time>
      </trkpt>
      <trkpt lat="46.9946" lon="6.70276">
        <ele>1195.2</ele>
        <time>2021-09-11T10:53:33.021Z</time>
      </trkpt>
      <trkpt lat="46.99462" lon="6.70281">
        <ele>1195.3</ele>
        <time>2021-09-11T10:53:37.769Z</time>
      </trkpt>
      <trkpt lat="46.99466" lon="6.70294">
        <ele>1195.4</ele>
        <time>2021-09-11T10:53:47.676Z</time>
      </trkpt>
      <trkpt lat="46.99474" lon="6.70318">
        <ele>1195.6995112991</ele>
        <time>2021-09-11T10:54:07.465Z</time>
      </trkpt>
      <trkpt lat="46.99484" lon="6.70347">
        <ele>1196</ele>
        <time>2021-09-11T10:54:30.813Z</time>
      </trkpt>
      <trkpt lat="46.99505" lon="6.70409">
        <ele>1195.2002255846</ele>
        <time>2021-09-11T10:54:45.469Z</time>
      </trkpt>
      <trkpt lat="46.99511" lon="6.70426">
        <ele>1195.7</ele>
        <time>2021-09-11T10:55:04.018Z</time>
      </trkpt>
      <trkpt lat="46.99522" lon="6.7046">
        <ele>1196.6</ele>
        <time>2021-09-11T10:55:38.902Z</time>
      </trkpt>
      <trkpt lat="46.99526" lon="6.70471">
        <ele>1197</ele>
        <time>2021-09-11T10:55:52.357Z</time>
      </trkpt>
      <trkpt lat="46.99526" lon="6.70472">
        <ele>1197</ele>
        <time>2021-09-11T10:55:52.970Z</time>
      </trkpt>
      <trkpt lat="46.99526" lon="6.70471">
        <ele>1197</ele>
        <time>2021-09-11T10:55:53.583Z</time>
      </trkpt>
      <trkpt lat="46.9953" lon="6.70486">
        <ele>1197.3</ele>
        <time>2021-09-11T10:56:07.098Z</time>
      </trkpt>
      <trkpt lat="46.99541" lon="6.70523">
        <ele>1197.6999352229</ele>
        <time>2021-09-11T10:56:36.395Z</time>
      </trkpt>
      <trkpt lat="46.99554" lon="6.70564">
        <ele>1197.7</ele>
        <time>2021-09-11T10:57:04.847Z</time>
      </trkpt>
      <trkpt lat="46.99571" lon="6.70616">
        <ele>1195.4987599136</ele>
        <time>2021-09-11T10:57:13.125Z</time>
      </trkpt>
      <trkpt lat="46.99582" lon="6.70652">
        <ele>1194.398256979</ele>
        <time>2021-09-11T10:57:19.592Z</time>
      </trkpt>
      <trkpt lat="46.99586" lon="6.70668">
        <ele>1193.4</ele>
        <time>2021-09-11T10:57:22.045Z</time>
      </trkpt>
      <trkpt lat="46.99597" lon="6.70713">
        <ele>1190.9</ele>
        <time>2021-09-11T10:57:28.929Z</time>
      </trkpt>
      <trkpt lat="46.99599" lon="6.70723">
        <ele>1190.4</ele>
        <time>2021-09-11T10:57:30.430Z</time>
      </trkpt>
      <trkpt lat="46.99603" lon="6.70736">
        <ele>1189.9991230885</ele>
        <time>2021-09-11T10:57:32.761Z</time>
      </trkpt>
      <trkpt lat="46.99605" lon="6.70742">
        <ele>1189.9</ele>
        <time>2021-09-11T10:57:34.096Z</time>
      </trkpt>
      <trkpt lat="46.99605" lon="6.70743">
        <ele>1189.9</ele>
        <time>2021-09-11T10:57:34.725Z</time>
      </trkpt>
      <trkpt lat="46.99608" lon="6.70747">
        <ele>1189.9</ele>
        <time>2021-09-11T10:57:38.467Z</time>
      </trkpt>
      <trkpt lat="46.9961" lon="6.7075">
        <ele>1189.9</ele>
        <time>2021-09-11T10:57:41.106Z</time>
      </trkpt>
      <trkpt lat="46.99611" lon="6.70751">
        <ele>1189.9</ele>
        <time>2021-09-11T10:57:42.223Z</time>
      </trkpt>
      <trkpt lat="46.99614" lon="6.70755">
        <ele>1189.8</ele>
        <time>2021-09-11T10:57:43.374Z</time>
      </trkpt>
      <trkpt lat="46.99618" lon="6.7076">
        <ele>1189.9993117304</ele>
        <time>2021-09-11T10:57:50.804Z</time>
      </trkpt>
      <trkpt lat="46.99624" lon="6.70764">
        <ele>1190</ele>
        <time>2021-09-11T10:57:56.891Z</time>
      </trkpt>
      <trkpt lat="46.99626" lon="6.70765">
        <ele>1190.0993104991</ele>
        <time>2021-09-11T10:58:00.234Z</time>
      </trkpt>
      <trkpt lat="46.99628" lon="6.70766">
        <ele>1190.199784927</ele>
        <time>2021-09-11T10:58:03.589Z</time>
      </trkpt>
      <trkpt lat="46.9964" lon="6.70771">
        <ele>1190.4995013916</ele>
        <time>2021-09-11T10:58:18.346Z</time>
      </trkpt>
      <trkpt lat="46.99684" lon="6.70789">
        <ele>1191.1</ele>
        <time>2021-09-11T10:59:06.259Z</time>
      </trkpt>
      <trkpt lat="46.99692" lon="6.70793">
        <ele>1191.3</ele>
        <time>2021-09-11T10:59:16.215Z</time>
      </trkpt>
      <trkpt lat="46.99704" lon="6.70798">
        <ele>1191.5</ele>
        <time>2021-09-11T10:59:29.706Z</time>
      </trkpt>
      <trkpt lat="46.99706" lon="6.70798">
        <ele>1191.5</ele>
        <time>2021-09-11T10:59:31.551Z</time>
      </trkpt>
      <trkpt lat="46.99746" lon="6.70808">
        <ele>1190.9</ele>
        <time>2021-09-11T10:59:44.485Z</time>
      </trkpt>
      <trkpt lat="46.99754" lon="6.7081">
        <ele>1190.7</ele>
        <time>2021-09-11T10:59:46.788Z</time>
      </trkpt>
      <trkpt lat="46.99819" lon="6.70824">
        <ele>1188.6995223401</ele>
        <time>2021-09-11T11:00:04.303Z</time>
      </trkpt>
      <trkpt lat="46.99847" lon="6.7083">
        <ele>1186.2</ele>
        <time>2021-09-11T11:00:10.277Z</time>
      </trkpt>
      <trkpt lat="46.99848" lon="6.7083">
        <ele>1186.1000785455</ele>
        <time>2021-09-11T11:00:10.488Z</time>
      </trkpt>
      <trkpt lat="46.99865" lon="6.70834">
        <ele>1184.3</ele>
        <time>2021-09-11T11:00:14.123Z</time>
      </trkpt>
      <trkpt lat="46.99876" lon="6.70838">
        <ele>1183.2035683618</ele>
        <time>2021-09-11T11:00:16.516Z</time>
      </trkpt>
      <trkpt lat="46.9989" lon="6.70843">
        <ele>1182.1</ele>
        <time>2021-09-11T11:00:19.558Z</time>
      </trkpt>
      <trkpt lat="46.99899" lon="6.70848">
        <ele>1181.4</ele>
        <time>2021-09-11T11:00:21.590Z</time>
      </trkpt>
      <trkpt lat="46.99908" lon="6.70853">
        <ele>1180.9987906061</ele>
        <time>2021-09-11T11:00:23.886Z</time>
      </trkpt>
      <trkpt lat="46.99912" lon="6.70856">
        <ele>1180.8010033352</ele>
        <time>2021-09-11T11:00:24.936Z</time>
      </trkpt>
      <trkpt lat="46.99918" lon="6.7086">
        <ele>1180.4992688005</ele>
        <time>2021-09-11T11:00:26.450Z</time>
      </trkpt>
      <trkpt lat="46.99923" lon="6.70865">
        <ele>1180.1992673869</ele>
        <time>2021-09-11T11:00:27.795Z</time>
      </trkpt>
      <trkpt lat="46.99925" lon="6.70866">
        <ele>1180.1</ele>
        <time>2021-09-11T11:00:28.275Z</time>
      </trkpt>
      <trkpt lat="46.9993" lon="6.70873">
        <ele>1179.2</ele>
        <time>2021-09-11T11:00:29.735Z</time>
      </trkpt>
      <trkpt lat="46.99933" lon="6.70877">
        <ele>1178.8</ele>
        <time>2021-09-11T11:00:30.591Z</time>
      </trkpt>
      <trkpt lat="46.99935" lon="6.70881">
        <ele>1178.3066594602</ele>
        <time>2021-09-11T11:00:31.305Z</time>
      </trkpt>
      <trkpt lat="46.99938" lon="6.70887">
        <ele>1177.5003224713</ele>
        <time>2021-09-11T11:00:32.376Z</time>
      </trkpt>
      <trkpt lat="46.99944" lon="6.70901">
        <ele>1176.1013826747</ele>
        <time>2021-09-11T11:00:34.757Z</time>
      </trkpt>
      <trkpt lat="46.99952" lon="6.70919">
        <ele>1174.6973653075</ele>
        <time>2021-09-11T11:00:37.851Z</time>
      </trkpt>
      <trkpt lat="46.99956" lon="6.70928">
        <ele>1174</ele>
        <time>2021-09-11T11:00:39.397Z</time>
      </trkpt>
      <trkpt lat="46.9996" lon="6.70933">
        <ele>1173.8010966665</ele>
        <time>2021-09-11T11:00:40.698Z</time>
      </trkpt>
      <trkpt lat="46.99965" lon="6.7094">
        <ele>1173.4</ele>
        <time>2021-09-11T11:00:42.129Z</time>
      </trkpt>
      <trkpt lat="46.99971" lon="6.70945">
        <ele>1172.9</ele>
        <time>2021-09-11T11:00:43.586Z</time>
      </trkpt>
      <trkpt lat="46.99977" lon="6.7095">
        <ele>1172.403099084</ele>
        <time>2021-09-11T11:00:45.043Z</time>
      </trkpt>
      <trkpt lat="46.99984" lon="6.70954">
        <ele>1172.2</ele>
        <time>2021-09-11T11:00:47.120Z</time>
      </trkpt>
      <trkpt lat="47" lon="6.70961">
        <ele>1171.2991223625</ele>
        <time>2021-09-11T11:00:50.694Z</time>
      </trkpt>
      <trkpt lat="47.00012" lon="6.70965">
        <ele>1171</ele>
        <time>2021-09-11T11:00:54.200Z</time>
      </trkpt>
      <trkpt lat="47.00017" lon="6.70967">
        <ele>1170.8</ele>
        <time>2021-09-11T11:00:55.473Z</time>
      </trkpt>
      <trkpt lat="47.00025" lon="6.7097">
        <ele>1170.9</ele>
        <time>2021-09-11T11:01:04.042Z</time>
      </trkpt>
      <trkpt lat="47.0003" lon="6.70973">
        <ele>1170.7996302445</ele>
        <time>2021-09-11T11:01:05.686Z</time>
      </trkpt>
      <trkpt lat="47.00034" lon="6.70975">
        <ele>1170.6991069051</ele>
        <time>2021-09-11T11:01:06.897Z</time>
      </trkpt>
      <trkpt lat="47.00037" lon="6.70977">
        <ele>1170.6004896741</ele>
        <time>2021-09-11T11:01:07.780Z</time>
      </trkpt>
      <trkpt lat="47.0004" lon="6.7098">
        <ele>1170.4023180829</ele>
        <time>2021-09-11T11:01:08.554Z</time>
      </trkpt>
      <trkpt lat="47.00043" lon="6.70984">
        <ele>1170.1988620053</ele>
        <time>2021-09-11T11:01:09.450Z</time>
      </trkpt>
      <trkpt lat="47.00044" lon="6.70986">
        <ele>1170.0048297772</ele>
        <time>2021-09-11T11:01:09.807Z</time>
      </trkpt>
      <trkpt lat="47.00046" lon="6.70989">
        <ele>1169.9013116456</ele>
        <time>2021-09-11T11:01:10.527Z</time>
      </trkpt>
      <trkpt lat="47.00047" lon="6.70993">
        <ele>1169.7000798217</ele>
        <time>2021-09-11T11:01:11.140Z</time>
      </trkpt>
      <trkpt lat="47.00048" lon="6.70998">
        <ele>1169.5</ele>
        <time>2021-09-11T11:01:11.886Z</time>
      </trkpt>
      <trkpt lat="47.00051" lon="6.71012">
        <ele>1169.000181302</ele>
        <time>2021-09-11T11:01:14.103Z</time>
      </trkpt>
      <trkpt lat="47.00064" lon="6.71075">
        <ele>1168.6</ele>
        <time>2021-09-11T11:01:29.544Z</time>
      </trkpt>
      <trkpt lat="47.00064" lon="6.71075">
        <ele>1168.6</ele>
        <time>2021-09-11T11:01:29.853Z</time>
      </trkpt>
      <trkpt lat="47.00064" lon="6.71075">
        <ele>1168.6</ele>
        <time>2021-09-11T11:01:30.162Z</time>
      </trkpt>
      <trkpt lat="47.00069" lon="6.711">
        <ele>1168.0999515693</ele>
        <time>2021-09-11T11:01:35.016Z</time>
      </trkpt>
      <trkpt lat="47.00071" lon="6.71107">
        <ele>1167.9008185344</ele>
        <time>2021-09-11T11:01:36.289Z</time>
      </trkpt>
      <trkpt lat="47.00077" lon="6.71124">
        <ele>1167.7</ele>
        <time>2021-09-11T11:01:40.420Z</time>
      </trkpt>
      <trkpt lat="47.00089" lon="6.71158">
        <ele>1166.9</ele>
        <time>2021-09-11T11:01:47.366Z</time>
      </trkpt>
      <trkpt lat="47.00106" lon="6.71202">
        <ele>1167.3</ele>
        <time>2021-09-11T11:02:22.967Z</time>
      </trkpt>
      <trkpt lat="47.00115" lon="6.71223">
        <ele>1167.8016100361</ele>
        <time>2021-09-11T11:02:44.392Z</time>
      </trkpt>
      <trkpt lat="47.0012" lon="6.71236">
        <ele>1168.2</ele>
        <time>2021-09-11T11:02:59.031Z</time>
      </trkpt>
      <trkpt lat="47.00122" lon="6.71245">
        <ele>1168.5005332062</ele>
        <time>2021-09-11T11:03:09.215Z</time>
      </trkpt>
      <trkpt lat="47.00123" lon="6.71252">
        <ele>1168.5995566737</ele>
        <time>2021-09-11T11:03:14.743Z</time>
      </trkpt>
      <trkpt lat="47.00123" lon="6.7126">
        <ele>1168.9</ele>
        <time>2021-09-11T11:03:23.847Z</time>
      </trkpt>
      <trkpt lat="47.00123" lon="6.71266">
        <ele>1169.2</ele>
        <time>2021-09-11T11:03:31.638Z</time>
      </trkpt>
      <trkpt lat="47.00122" lon="6.71272">
        <ele>1169.1004528494</ele>
        <time>2021-09-11T11:03:32.847Z</time>
      </trkpt>
      <trkpt lat="47.00116" lon="6.71296">
        <ele>1169.8</ele>
        <time>2021-09-11T11:03:58.278Z</time>
      </trkpt>
      <trkpt lat="47.0011" lon="6.71319">
        <ele>1170.6</ele>
        <time>2021-09-11T11:04:24.957Z</time>
      </trkpt>
      <trkpt lat="47.00109" lon="6.71329">
        <ele>1170.7</ele>
        <time>2021-09-11T11:04:32.290Z</time>
      </trkpt>
      <trkpt lat="47.00109" lon="6.71336">
        <ele>1170.8</ele>
        <time>2021-09-11T11:04:37.740Z</time>
      </trkpt>
      <trkpt lat="47.0011" lon="6.71351">
        <ele>1170.9</ele>
        <time>2021-09-11T11:04:48.151Z</time>
      </trkpt>
      <trkpt lat="47.00111" lon="6.71374">
        <ele>1171.9</ele>
        <time>2021-09-11T11:05:15.992Z</time>
      </trkpt>
      <trkpt lat="47.00103" lon="6.71382">
        <ele>1171.4976798245</ele>
        <time>2021-09-11T11:05:18.305Z</time>
      </trkpt>
      <trkpt lat="47.00097" lon="6.71393">
        <ele>1170.9</ele>
        <time>2021-09-11T11:05:20.228Z</time>
      </trkpt>
      <trkpt lat="47.00094" lon="6.71396">
        <ele>1170.7</ele>
        <time>2021-09-11T11:05:20.998Z</time>
      </trkpt>
      <trkpt lat="47.00086" lon="6.71406">
        <ele>1170.2</ele>
        <time>2021-09-11T11:05:23.375Z</time>
      </trkpt>
      <trkpt lat="47.00075" lon="6.71423">
        <ele>1169.3</ele>
        <time>2021-09-11T11:05:26.729Z</time>
      </trkpt>
      <trkpt lat="47.00058" lon="6.71451">
        <ele>1167.6</ele>
        <time>2021-09-11T11:05:31.681Z</time>
      </trkpt>
      <trkpt lat="47.00033" lon="6.71495">
        <ele>1166.2</ele>
        <time>2021-09-11T11:05:41.537Z</time>
      </trkpt>
      <trkpt lat="47.00024" lon="6.71512">
        <ele>1165.8</ele>
        <time>2021-09-11T11:05:45.586Z</time>
      </trkpt>
      <trkpt lat="47.00017" lon="6.71527">
        <ele>1165.0970928844</ele>
        <time>2021-09-11T11:05:48.179Z</time>
      </trkpt>
      <trkpt lat="47.00015" lon="6.71534">
        <ele>1164.7</ele>
        <time>2021-09-11T11:05:49.272Z</time>
      </trkpt>
      <trkpt lat="47.00015" lon="6.71551">
        <ele>1164.5</ele>
        <time>2021-09-11T11:05:52.857Z</time>
      </trkpt>
      <trkpt lat="47.00016" lon="6.71561">
        <ele>1164.6</ele>
        <time>2021-09-11T11:06:00.191Z</time>
      </trkpt>
      <trkpt lat="47.00017" lon="6.7157">
        <ele>1164.5</ele>
        <time>2021-09-11T11:06:02.142Z</time>
      </trkpt>
      <trkpt lat="47.00025" lon="6.71595">
        <ele>1165.1</ele>
        <time>2021-09-11T11:06:26.677Z</time>
      </trkpt>
      <trkpt lat="47.00027" lon="6.71603">
        <ele>1165.3</ele>
        <time>2021-09-11T11:06:34.506Z</time>
      </trkpt>
      <trkpt lat="47.00028" lon="6.71603">
        <ele>1165.3</ele>
        <time>2021-09-11T11:06:35.161Z</time>
      </trkpt>
    </trkseg>
  </trk>
</gpx>